<?xml version="1.0" encoding="UTF-8" standalone="no" ?>
<gpx xmlns="http://www.topografix.com/GPX/1/1" xmlns:xsi="http://www.w3.org/2001/XMLSchema-instance" xsi:schemaLocation="http://www.topografix.com/GPX/1/1 http://www.topografix.com/GPX/1/1/gpx.xsd" version="1.1" creator="VisuGPX - https://www.visugpx.com">
  <metadata>
    <name>124_Circuit 56 km Les Herbiers_Les Herbiers édité par cth85.com</name>
    <desc><![CDATA[Circuit de 66 km passant par:
Les Herbiers
D11 Les Epesses
D79 Saint Mars la Réorthe
à gauche, la blottière
Saint Michel Mont Mercure
direction Pouzauges sur 1 km
à droite, la chagnais
Le Boupère
D26 Saint Prouant
D113 Mouchamps
Vendrennes
D53 Mesnard la Barotière
D53 Beaurepaire
Les Herbiers]]></desc>
  </metadata>
  <trk>
    <name><![CDATA[56_124 cth85.com]]></name>
    <extensions>
      <line xmlns="http://www.topografix.com/GPX/gpx_style/0/2">
        <color>0000FF</color>
        <width>4</width>
      </line>
    </extensions>
    <trkseg>
      <trkpt lat="46.86459" lon="-1.00555">
        <ele>120</ele>
        <time>2018-08-29T19:20:07Z</time>
      </trkpt>
      <trkpt lat="46.86406" lon="-1.00559">
        <ele>120</ele>
        <time>2018-08-29T19:21:07Z</time>
      </trkpt>
      <trkpt lat="46.86391" lon="-1.00556">
        <ele>120</ele>
        <time>2018-08-29T19:22:07Z</time>
      </trkpt>
      <trkpt lat="46.86381" lon="-1.00562">
        <ele>120</ele>
        <time>2018-08-29T19:23:07Z</time>
      </trkpt>
      <trkpt lat="46.86335" lon="-1.00614">
        <ele>119</ele>
        <time>2018-08-29T19:24:07Z</time>
      </trkpt>
      <trkpt lat="46.86315" lon="-1.00632">
        <ele>119</ele>
        <time>2018-08-29T19:25:07Z</time>
      </trkpt>
      <trkpt lat="46.8627" lon="-1.00662">
        <ele>118</ele>
        <time>2018-08-29T19:26:07Z</time>
      </trkpt>
      <trkpt lat="46.86234" lon="-1.00681">
        <ele>117</ele>
        <time>2018-08-29T19:27:07Z</time>
      </trkpt>
      <trkpt lat="46.86228" lon="-1.00664">
        <ele>117</ele>
        <time>2018-08-29T19:28:07Z</time>
      </trkpt>
      <trkpt lat="46.86189" lon="-1.00512">
        <ele>115</ele>
        <time>2018-08-29T19:29:07Z</time>
      </trkpt>
      <trkpt lat="46.8617" lon="-1.00489">
        <ele>115</ele>
        <time>2018-08-29T19:30:07Z</time>
      </trkpt>
      <trkpt lat="46.86129" lon="-1.0046">
        <ele>116</ele>
        <time>2018-08-29T19:31:07Z</time>
      </trkpt>
      <trkpt lat="46.86043" lon="-1.00404">
        <ele>115</ele>
        <time>2018-08-29T19:32:07Z</time>
      </trkpt>
      <trkpt lat="46.86052" lon="-1.00363">
        <ele>115</ele>
        <time>2018-08-29T19:33:07Z</time>
      </trkpt>
      <trkpt lat="46.86126" lon="-1.00088">
        <ele>118</ele>
        <time>2018-08-29T19:34:07Z</time>
      </trkpt>
      <trkpt lat="46.86221" lon="-0.99734">
        <ele>120</ele>
        <time>2018-08-29T19:35:07Z</time>
      </trkpt>
      <trkpt lat="46.86328" lon="-0.99176">
        <ele>128</ele>
        <time>2018-08-29T19:36:07Z</time>
      </trkpt>
      <trkpt lat="46.86345" lon="-0.99107">
        <ele>129</ele>
        <time>2018-08-29T19:37:07Z</time>
      </trkpt>
      <trkpt lat="46.86366" lon="-0.99042">
        <ele>131</ele>
        <time>2018-08-29T19:38:07Z</time>
      </trkpt>
      <trkpt lat="46.86386" lon="-0.98993">
        <ele>133</ele>
        <time>2018-08-29T19:39:07Z</time>
      </trkpt>
      <trkpt lat="46.86448" lon="-0.98872">
        <ele>139</ele>
        <time>2018-08-29T19:40:07Z</time>
      </trkpt>
      <trkpt lat="46.86498" lon="-0.98769">
        <ele>143</ele>
        <time>2018-08-29T19:41:07Z</time>
      </trkpt>
      <trkpt lat="46.86531" lon="-0.98695">
        <ele>146</ele>
        <time>2018-08-29T19:42:07Z</time>
      </trkpt>
      <trkpt lat="46.86563" lon="-0.98597">
        <ele>148</ele>
        <time>2018-08-29T19:43:07Z</time>
      </trkpt>
      <trkpt lat="46.86601" lon="-0.98456">
        <ele>149</ele>
        <time>2018-08-29T19:44:07Z</time>
      </trkpt>
      <trkpt lat="46.86608" lon="-0.98419">
        <ele>149</ele>
        <time>2018-08-29T19:45:07Z</time>
      </trkpt>
      <trkpt lat="46.86614" lon="-0.98397">
        <ele>148</ele>
        <time>2018-08-29T19:46:07Z</time>
      </trkpt>
      <trkpt lat="46.86619" lon="-0.98385">
        <ele>147</ele>
        <time>2018-08-29T19:47:07Z</time>
      </trkpt>
      <trkpt lat="46.8663" lon="-0.9837">
        <ele>145</ele>
        <time>2018-08-29T19:48:07Z</time>
      </trkpt>
      <trkpt lat="46.86628" lon="-0.9819">
        <ele>148</ele>
        <time>2018-08-29T19:49:07Z</time>
      </trkpt>
      <trkpt lat="46.86626" lon="-0.98147">
        <ele>149</ele>
        <time>2018-08-29T19:50:07Z</time>
      </trkpt>
      <trkpt lat="46.86635" lon="-0.98145">
        <ele>148</ele>
        <time>2018-08-29T19:51:07Z</time>
      </trkpt>
      <trkpt lat="46.86644" lon="-0.98139">
        <ele>147</ele>
        <time>2018-08-29T19:52:07Z</time>
      </trkpt>
      <trkpt lat="46.86656" lon="-0.98122">
        <ele>146</ele>
        <time>2018-08-29T19:53:07Z</time>
      </trkpt>
      <trkpt lat="46.86741" lon="-0.97911">
        <ele>143</ele>
        <time>2018-08-29T19:54:07Z</time>
      </trkpt>
      <trkpt lat="46.86864" lon="-0.97613">
        <ele>138</ele>
        <time>2018-08-29T19:55:07Z</time>
      </trkpt>
      <trkpt lat="46.8695" lon="-0.974">
        <ele>140</ele>
        <time>2018-08-29T19:56:07Z</time>
      </trkpt>
      <trkpt lat="46.86955" lon="-0.9737">
        <ele>141</ele>
        <time>2018-08-29T19:57:07Z</time>
      </trkpt>
      <trkpt lat="46.8695" lon="-0.9736">
        <ele>141</ele>
        <time>2018-08-29T19:58:07Z</time>
      </trkpt>
      <trkpt lat="46.86949" lon="-0.97353">
        <ele>141</ele>
        <time>2018-08-29T19:59:07Z</time>
      </trkpt>
      <trkpt lat="46.8695" lon="-0.97337">
        <ele>142</ele>
        <time>2018-08-29T20:00:07Z</time>
      </trkpt>
      <trkpt lat="46.86957" lon="-0.97324">
        <ele>142</ele>
        <time>2018-08-29T20:01:07Z</time>
      </trkpt>
      <trkpt lat="46.86968" lon="-0.97319">
        <ele>141</ele>
        <time>2018-08-29T20:02:07Z</time>
      </trkpt>
      <trkpt lat="46.86977" lon="-0.97286">
        <ele>142</ele>
        <time>2018-08-29T20:03:07Z</time>
      </trkpt>
      <trkpt lat="46.86982" lon="-0.9725">
        <ele>142</ele>
        <time>2018-08-29T20:04:07Z</time>
      </trkpt>
      <trkpt lat="46.86987" lon="-0.97185">
        <ele>143</ele>
        <time>2018-08-29T20:05:07Z</time>
      </trkpt>
      <trkpt lat="46.86996" lon="-0.96923">
        <ele>145</ele>
        <time>2018-08-29T20:06:07Z</time>
      </trkpt>
      <trkpt lat="46.87001" lon="-0.96834">
        <ele>144</ele>
        <time>2018-08-29T20:07:07Z</time>
      </trkpt>
      <trkpt lat="46.87009" lon="-0.96763">
        <ele>143</ele>
        <time>2018-08-29T20:08:07Z</time>
      </trkpt>
      <trkpt lat="46.87018" lon="-0.96705">
        <ele>143</ele>
        <time>2018-08-29T20:09:07Z</time>
      </trkpt>
      <trkpt lat="46.87048" lon="-0.96579">
        <ele>143</ele>
        <time>2018-08-29T20:10:07Z</time>
      </trkpt>
      <trkpt lat="46.87062" lon="-0.96531">
        <ele>142</ele>
        <time>2018-08-29T20:11:07Z</time>
      </trkpt>
      <trkpt lat="46.87134" lon="-0.96346">
        <ele>143</ele>
        <time>2018-08-29T20:12:07Z</time>
      </trkpt>
      <trkpt lat="46.87123" lon="-0.96333">
        <ele>142</ele>
        <time>2018-08-29T20:13:07Z</time>
      </trkpt>
      <trkpt lat="46.87123" lon="-0.96333">
        <ele>142</ele>
        <time>2018-08-29T20:14:07Z</time>
      </trkpt>
      <trkpt lat="46.87134" lon="-0.96346">
        <ele>143</ele>
        <time>2018-08-29T20:15:07Z</time>
      </trkpt>
      <trkpt lat="46.87246" lon="-0.96059">
        <ele>147</ele>
        <time>2018-08-29T20:16:07Z</time>
      </trkpt>
      <trkpt lat="46.87266" lon="-0.95997">
        <ele>149</ele>
        <time>2018-08-29T20:17:07Z</time>
      </trkpt>
      <trkpt lat="46.87274" lon="-0.95957">
        <ele>149</ele>
        <time>2018-08-29T20:18:07Z</time>
      </trkpt>
      <trkpt lat="46.87289" lon="-0.95812">
        <ele>148</ele>
        <time>2018-08-29T20:19:07Z</time>
      </trkpt>
      <trkpt lat="46.87311" lon="-0.95551">
        <ele>151</ele>
        <time>2018-08-29T20:20:07Z</time>
      </trkpt>
      <trkpt lat="46.87312" lon="-0.95514">
        <ele>152</ele>
        <time>2018-08-29T20:21:07Z</time>
      </trkpt>
      <trkpt lat="46.8731" lon="-0.95471">
        <ele>152</ele>
        <time>2018-08-29T20:22:07Z</time>
      </trkpt>
      <trkpt lat="46.87303" lon="-0.9541">
        <ele>153</ele>
        <time>2018-08-29T20:23:07Z</time>
      </trkpt>
      <trkpt lat="46.87294" lon="-0.95368">
        <ele>151</ele>
        <time>2018-08-29T20:24:07Z</time>
      </trkpt>
      <trkpt lat="46.87273" lon="-0.95301">
        <ele>148</ele>
        <time>2018-08-29T20:25:07Z</time>
      </trkpt>
      <trkpt lat="46.87239" lon="-0.95215">
        <ele>146</ele>
        <time>2018-08-29T20:26:07Z</time>
      </trkpt>
      <trkpt lat="46.87224" lon="-0.95167">
        <ele>145</ele>
        <time>2018-08-29T20:27:07Z</time>
      </trkpt>
      <trkpt lat="46.87216" lon="-0.95135">
        <ele>144</ele>
        <time>2018-08-29T20:28:07Z</time>
      </trkpt>
      <trkpt lat="46.8721" lon="-0.95107">
        <ele>143</ele>
        <time>2018-08-29T20:29:07Z</time>
      </trkpt>
      <trkpt lat="46.87199" lon="-0.9501">
        <ele>139</ele>
        <time>2018-08-29T20:30:07Z</time>
      </trkpt>
      <trkpt lat="46.87198" lon="-0.9497">
        <ele>137</ele>
        <time>2018-08-29T20:31:07Z</time>
      </trkpt>
      <trkpt lat="46.872" lon="-0.94931">
        <ele>135</ele>
        <time>2018-08-29T20:32:07Z</time>
      </trkpt>
      <trkpt lat="46.87203" lon="-0.9489">
        <ele>134</ele>
        <time>2018-08-29T20:33:07Z</time>
      </trkpt>
      <trkpt lat="46.8725" lon="-0.94631">
        <ele>123</ele>
        <time>2018-08-29T20:34:07Z</time>
      </trkpt>
      <trkpt lat="46.87263" lon="-0.94572">
        <ele>123</ele>
        <time>2018-08-29T20:35:07Z</time>
      </trkpt>
      <trkpt lat="46.87283" lon="-0.94463">
        <ele>128</ele>
        <time>2018-08-29T20:36:07Z</time>
      </trkpt>
      <trkpt lat="46.87415" lon="-0.93784">
        <ele>149</ele>
        <time>2018-08-29T20:37:07Z</time>
      </trkpt>
      <trkpt lat="46.87426" lon="-0.93717">
        <ele>151</ele>
        <time>2018-08-29T20:38:07Z</time>
      </trkpt>
      <trkpt lat="46.87431" lon="-0.93677">
        <ele>151</ele>
        <time>2018-08-29T20:39:07Z</time>
      </trkpt>
      <trkpt lat="46.87454" lon="-0.9332">
        <ele>160</ele>
        <time>2018-08-29T20:40:07Z</time>
      </trkpt>
      <trkpt lat="46.8746" lon="-0.93285">
        <ele>160</ele>
        <time>2018-08-29T20:41:07Z</time>
      </trkpt>
      <trkpt lat="46.87467" lon="-0.93258">
        <ele>161</ele>
        <time>2018-08-29T20:42:07Z</time>
      </trkpt>
      <trkpt lat="46.87478" lon="-0.93235">
        <ele>162</ele>
        <time>2018-08-29T20:43:07Z</time>
      </trkpt>
      <trkpt lat="46.87531" lon="-0.93159">
        <ele>168</ele>
        <time>2018-08-29T20:44:07Z</time>
      </trkpt>
      <trkpt lat="46.87543" lon="-0.93135">
        <ele>170</ele>
        <time>2018-08-29T20:45:07Z</time>
      </trkpt>
      <trkpt lat="46.87556" lon="-0.931">
        <ele>172</ele>
        <time>2018-08-29T20:46:07Z</time>
      </trkpt>
      <trkpt lat="46.87575" lon="-0.9303">
        <ele>177</ele>
        <time>2018-08-29T20:47:07Z</time>
      </trkpt>
      <trkpt lat="46.87591" lon="-0.92958">
        <ele>181</ele>
        <time>2018-08-29T20:48:07Z</time>
      </trkpt>
      <trkpt lat="46.87631" lon="-0.92687">
        <ele>189</ele>
        <time>2018-08-29T20:49:07Z</time>
      </trkpt>
      <trkpt lat="46.87625" lon="-0.92684">
        <ele>189</ele>
        <time>2018-08-29T20:50:07Z</time>
      </trkpt>
      <trkpt lat="46.8762" lon="-0.92678">
        <ele>188</ele>
        <time>2018-08-29T20:51:07Z</time>
      </trkpt>
      <trkpt lat="46.87617" lon="-0.92669">
        <ele>187</ele>
        <time>2018-08-29T20:52:07Z</time>
      </trkpt>
      <trkpt lat="46.87616" lon="-0.9266">
        <ele>187</ele>
        <time>2018-08-29T20:53:07Z</time>
      </trkpt>
      <trkpt lat="46.87617" lon="-0.92651">
        <ele>187</ele>
        <time>2018-08-29T20:54:07Z</time>
      </trkpt>
      <trkpt lat="46.87619" lon="-0.92643">
        <ele>187</ele>
        <time>2018-08-29T20:55:07Z</time>
      </trkpt>
      <trkpt lat="46.87624" lon="-0.92636">
        <ele>187</ele>
        <time>2018-08-29T20:56:07Z</time>
      </trkpt>
      <trkpt lat="46.8763" lon="-0.92632">
        <ele>187</ele>
        <time>2018-08-29T20:57:07Z</time>
      </trkpt>
      <trkpt lat="46.87636" lon="-0.92631">
        <ele>188</ele>
        <time>2018-08-29T20:58:07Z</time>
      </trkpt>
      <trkpt lat="46.87642" lon="-0.92633">
        <ele>189</ele>
        <time>2018-08-29T20:59:07Z</time>
      </trkpt>
      <trkpt lat="46.87647" lon="-0.92613">
        <ele>189</ele>
        <time>2018-08-29T21:00:07Z</time>
      </trkpt>
      <trkpt lat="46.87659" lon="-0.92575">
        <ele>189</ele>
        <time>2018-08-29T21:01:07Z</time>
      </trkpt>
      <trkpt lat="46.87677" lon="-0.92536">
        <ele>190</ele>
        <time>2018-08-29T21:02:07Z</time>
      </trkpt>
      <trkpt lat="46.87739" lon="-0.9242">
        <ele>193</ele>
        <time>2018-08-29T21:03:07Z</time>
      </trkpt>
      <trkpt lat="46.87753" lon="-0.92387">
        <ele>194</ele>
        <time>2018-08-29T21:04:07Z</time>
      </trkpt>
      <trkpt lat="46.87762" lon="-0.9235">
        <ele>195</ele>
        <time>2018-08-29T21:05:07Z</time>
      </trkpt>
      <trkpt lat="46.87793" lon="-0.92178">
        <ele>195</ele>
        <time>2018-08-29T21:06:07Z</time>
      </trkpt>
      <trkpt lat="46.87811" lon="-0.9211">
        <ele>194</ele>
        <time>2018-08-29T21:07:07Z</time>
      </trkpt>
      <trkpt lat="46.8783" lon="-0.92057">
        <ele>195</ele>
        <time>2018-08-29T21:08:07Z</time>
      </trkpt>
      <trkpt lat="46.8783" lon="-0.92057">
        <ele>195</ele>
        <time>2018-08-29T21:09:07Z</time>
      </trkpt>
      <trkpt lat="46.87931" lon="-0.91762">
        <ele>201</ele>
        <time>2018-08-29T21:10:07Z</time>
      </trkpt>
      <trkpt lat="46.88026" lon="-0.91545">
        <ele>205</ele>
        <time>2018-08-29T21:11:07Z</time>
      </trkpt>
      <trkpt lat="46.88066" lon="-0.91466">
        <ele>206</ele>
        <time>2018-08-29T21:12:07Z</time>
      </trkpt>
      <trkpt lat="46.88103" lon="-0.91412">
        <ele>207</ele>
        <time>2018-08-29T21:13:07Z</time>
      </trkpt>
      <trkpt lat="46.88187" lon="-0.91313">
        <ele>208</ele>
        <time>2018-08-29T21:14:07Z</time>
      </trkpt>
      <trkpt lat="46.88217" lon="-0.91275">
        <ele>210</ele>
        <time>2018-08-29T21:15:07Z</time>
      </trkpt>
      <trkpt lat="46.8828" lon="-0.91166">
        <ele>209</ele>
        <time>2018-08-29T21:16:07Z</time>
      </trkpt>
      <trkpt lat="46.88293" lon="-0.91139">
        <ele>208</ele>
        <time>2018-08-29T21:17:07Z</time>
      </trkpt>
      <trkpt lat="46.88303" lon="-0.91113">
        <ele>207</ele>
        <time>2018-08-29T21:18:07Z</time>
      </trkpt>
      <trkpt lat="46.88307" lon="-0.91078">
        <ele>206</ele>
        <time>2018-08-29T21:19:07Z</time>
      </trkpt>
      <trkpt lat="46.88309" lon="-0.91067">
        <ele>205</ele>
        <time>2018-08-29T21:20:07Z</time>
      </trkpt>
      <trkpt lat="46.88303" lon="-0.91058">
        <ele>205</ele>
        <time>2018-08-29T21:21:07Z</time>
      </trkpt>
      <trkpt lat="46.883" lon="-0.91046">
        <ele>205</ele>
        <time>2018-08-29T21:22:07Z</time>
      </trkpt>
      <trkpt lat="46.883" lon="-0.91035">
        <ele>205</ele>
        <time>2018-08-29T21:23:07Z</time>
      </trkpt>
      <trkpt lat="46.88302" lon="-0.91024">
        <ele>204</ele>
        <time>2018-08-29T21:24:07Z</time>
      </trkpt>
      <trkpt lat="46.88307" lon="-0.91015">
        <ele>204</ele>
        <time>2018-08-29T21:25:07Z</time>
      </trkpt>
      <trkpt lat="46.88284" lon="-0.90984">
        <ele>203</ele>
        <time>2018-08-29T21:26:07Z</time>
      </trkpt>
      <trkpt lat="46.88275" lon="-0.90979">
        <ele>203</ele>
        <time>2018-08-29T21:27:07Z</time>
      </trkpt>
      <trkpt lat="46.88264" lon="-0.90976">
        <ele>202</ele>
        <time>2018-08-29T21:28:07Z</time>
      </trkpt>
      <trkpt lat="46.88224" lon="-0.90978">
        <ele>201</ele>
        <time>2018-08-29T21:29:07Z</time>
      </trkpt>
      <trkpt lat="46.88207" lon="-0.90965">
        <ele>200</ele>
        <time>2018-08-29T21:30:07Z</time>
      </trkpt>
      <trkpt lat="46.88201" lon="-0.90947">
        <ele>199</ele>
        <time>2018-08-29T21:31:07Z</time>
      </trkpt>
      <trkpt lat="46.88184" lon="-0.90649">
        <ele>195</ele>
        <time>2018-08-29T21:32:07Z</time>
      </trkpt>
      <trkpt lat="46.88178" lon="-0.90626">
        <ele>193</ele>
        <time>2018-08-29T21:33:07Z</time>
      </trkpt>
      <trkpt lat="46.88168" lon="-0.90608">
        <ele>192</ele>
        <time>2018-08-29T21:34:07Z</time>
      </trkpt>
      <trkpt lat="46.88154" lon="-0.90589">
        <ele>190</ele>
        <time>2018-08-29T21:35:07Z</time>
      </trkpt>
      <trkpt lat="46.88149" lon="-0.90583">
        <ele>190</ele>
        <time>2018-08-29T21:36:07Z</time>
      </trkpt>
      <trkpt lat="46.88137" lon="-0.90578">
        <ele>189</ele>
        <time>2018-08-29T21:37:07Z</time>
      </trkpt>
      <trkpt lat="46.88123" lon="-0.90564">
        <ele>188</ele>
        <time>2018-08-29T21:38:07Z</time>
      </trkpt>
      <trkpt lat="46.88084" lon="-0.90511">
        <ele>184</ele>
        <time>2018-08-29T21:39:07Z</time>
      </trkpt>
      <trkpt lat="46.88052" lon="-0.90473">
        <ele>183</ele>
        <time>2018-08-29T21:40:07Z</time>
      </trkpt>
      <trkpt lat="46.87974" lon="-0.90356">
        <ele>179</ele>
        <time>2018-08-29T21:41:07Z</time>
      </trkpt>
      <trkpt lat="46.87971" lon="-0.90349">
        <ele>179</ele>
        <time>2018-08-29T21:42:07Z</time>
      </trkpt>
      <trkpt lat="46.87953" lon="-0.90259">
        <ele>177</ele>
        <time>2018-08-29T21:43:07Z</time>
      </trkpt>
      <trkpt lat="46.87951" lon="-0.90229">
        <ele>177</ele>
        <time>2018-08-29T21:44:07Z</time>
      </trkpt>
      <trkpt lat="46.87954" lon="-0.90182">
        <ele>176</ele>
        <time>2018-08-29T21:45:07Z</time>
      </trkpt>
      <trkpt lat="46.87971" lon="-0.90134">
        <ele>175</ele>
        <time>2018-08-29T21:46:07Z</time>
      </trkpt>
      <trkpt lat="46.87971" lon="-0.90134">
        <ele>175</ele>
        <time>2018-08-29T21:47:07Z</time>
      </trkpt>
      <trkpt lat="46.87974" lon="-0.90125">
        <ele>174</ele>
        <time>2018-08-29T21:48:07Z</time>
      </trkpt>
      <trkpt lat="46.87992" lon="-0.90089">
        <ele>172</ele>
        <time>2018-08-29T21:49:07Z</time>
      </trkpt>
      <trkpt lat="46.88007" lon="-0.90069">
        <ele>172</ele>
        <time>2018-08-29T21:50:07Z</time>
      </trkpt>
      <trkpt lat="46.87946" lon="-0.90038">
        <ele>173</ele>
        <time>2018-08-29T21:51:07Z</time>
      </trkpt>
      <trkpt lat="46.8794" lon="-0.90027">
        <ele>173</ele>
        <time>2018-08-29T21:52:07Z</time>
      </trkpt>
      <trkpt lat="46.87909" lon="-0.90031">
        <ele>174</ele>
        <time>2018-08-29T21:53:07Z</time>
      </trkpt>
      <trkpt lat="46.87897" lon="-0.90035">
        <ele>175</ele>
        <time>2018-08-29T21:54:07Z</time>
      </trkpt>
      <trkpt lat="46.87726" lon="-0.90122">
        <ele>181</ele>
        <time>2018-08-29T21:55:07Z</time>
      </trkpt>
      <trkpt lat="46.87518" lon="-0.90219">
        <ele>185</ele>
        <time>2018-08-29T21:56:07Z</time>
      </trkpt>
      <trkpt lat="46.87487" lon="-0.90239">
        <ele>185</ele>
        <time>2018-08-29T21:57:07Z</time>
      </trkpt>
      <trkpt lat="46.87468" lon="-0.90256">
        <ele>185</ele>
        <time>2018-08-29T21:58:07Z</time>
      </trkpt>
      <trkpt lat="46.87321" lon="-0.90414">
        <ele>183</ele>
        <time>2018-08-29T21:59:07Z</time>
      </trkpt>
      <trkpt lat="46.87311" lon="-0.90431">
        <ele>183</ele>
        <time>2018-08-29T22:00:07Z</time>
      </trkpt>
      <trkpt lat="46.87304" lon="-0.90448">
        <ele>183</ele>
        <time>2018-08-29T22:01:07Z</time>
      </trkpt>
      <trkpt lat="46.87304" lon="-0.90457">
        <ele>183</ele>
        <time>2018-08-29T22:02:07Z</time>
      </trkpt>
      <trkpt lat="46.87299" lon="-0.90474">
        <ele>183</ele>
        <time>2018-08-29T22:03:07Z</time>
      </trkpt>
      <trkpt lat="46.87289" lon="-0.90485">
        <ele>183</ele>
        <time>2018-08-29T22:04:07Z</time>
      </trkpt>
      <trkpt lat="46.87285" lon="-0.90487">
        <ele>183</ele>
        <time>2018-08-29T22:05:07Z</time>
      </trkpt>
      <trkpt lat="46.87277" lon="-0.905">
        <ele>183</ele>
        <time>2018-08-29T22:06:07Z</time>
      </trkpt>
      <trkpt lat="46.87197" lon="-0.90724">
        <ele>180</ele>
        <time>2018-08-29T22:07:07Z</time>
      </trkpt>
      <trkpt lat="46.87142" lon="-0.90841">
        <ele>179</ele>
        <time>2018-08-29T22:08:07Z</time>
      </trkpt>
      <trkpt lat="46.86879" lon="-0.9124">
        <ele>179</ele>
        <time>2018-08-29T22:09:07Z</time>
      </trkpt>
      <trkpt lat="46.86821" lon="-0.91337">
        <ele>173</ele>
        <time>2018-08-29T22:10:07Z</time>
      </trkpt>
      <trkpt lat="46.86794" lon="-0.91395">
        <ele>170</ele>
        <time>2018-08-29T22:11:07Z</time>
      </trkpt>
      <trkpt lat="46.86755" lon="-0.91503">
        <ele>164</ele>
        <time>2018-08-29T22:12:07Z</time>
      </trkpt>
      <trkpt lat="46.86746" lon="-0.91547">
        <ele>163</ele>
        <time>2018-08-29T22:13:07Z</time>
      </trkpt>
      <trkpt lat="46.86711" lon="-0.91804">
        <ele>152</ele>
        <time>2018-08-29T22:14:07Z</time>
      </trkpt>
      <trkpt lat="46.867" lon="-0.91846">
        <ele>150</ele>
        <time>2018-08-29T22:15:07Z</time>
      </trkpt>
      <trkpt lat="46.86677" lon="-0.91898">
        <ele>148</ele>
        <time>2018-08-29T22:16:07Z</time>
      </trkpt>
      <trkpt lat="46.86648" lon="-0.91945">
        <ele>146</ele>
        <time>2018-08-29T22:17:07Z</time>
      </trkpt>
      <trkpt lat="46.86624" lon="-0.91971">
        <ele>146</ele>
        <time>2018-08-29T22:18:07Z</time>
      </trkpt>
      <trkpt lat="46.86543" lon="-0.9204">
        <ele>148</ele>
        <time>2018-08-29T22:19:07Z</time>
      </trkpt>
      <trkpt lat="46.86522" lon="-0.92064">
        <ele>147</ele>
        <time>2018-08-29T22:20:07Z</time>
      </trkpt>
      <trkpt lat="46.86522" lon="-0.92064">
        <ele>147</ele>
        <time>2018-08-29T22:21:07Z</time>
      </trkpt>
      <trkpt lat="46.86483" lon="-0.92116">
        <ele>145</ele>
        <time>2018-08-29T22:22:07Z</time>
      </trkpt>
      <trkpt lat="46.8645" lon="-0.92164">
        <ele>143</ele>
      </trkpt>
      <trkpt lat="46.86376" lon="-0.9227">
        <ele>142.8</ele>
      </trkpt>
      <trkpt lat="46.86347" lon="-0.9232">
        <ele>142.3</ele>
      </trkpt>
      <trkpt lat="46.8632" lon="-0.92361">
        <ele>142.5</ele>
      </trkpt>
      <trkpt lat="46.86295" lon="-0.92386">
        <ele>143</ele>
      </trkpt>
      <trkpt lat="46.86271" lon="-0.92404">
        <ele>143</ele>
      </trkpt>
      <trkpt lat="46.86239" lon="-0.92419">
        <ele>143.4</ele>
      </trkpt>
      <trkpt lat="46.86201" lon="-0.92445">
        <ele>144</ele>
      </trkpt>
      <trkpt lat="46.86174" lon="-0.92466">
        <ele>143.4</ele>
      </trkpt>
      <trkpt lat="46.86156" lon="-0.92493">
        <ele>143.1</ele>
      </trkpt>
      <trkpt lat="46.86135" lon="-0.92527">
        <ele>143.1</ele>
      </trkpt>
      <trkpt lat="46.86109" lon="-0.92564">
        <ele>141</ele>
      </trkpt>
      <trkpt lat="46.86093" lon="-0.92587">
        <ele>140.1</ele>
      </trkpt>
      <trkpt lat="46.86084" lon="-0.92608">
        <ele>138.2</ele>
      </trkpt>
      <trkpt lat="46.86068" lon="-0.92655">
        <ele>135.1</ele>
      </trkpt>
      <trkpt lat="46.86057" lon="-0.92696">
        <ele>132</ele>
      </trkpt>
      <trkpt lat="46.8603" lon="-0.9274">
        <ele>130</ele>
      </trkpt>
      <trkpt lat="46.86007" lon="-0.92763">
        <ele>130.7</ele>
      </trkpt>
      <trkpt lat="46.85975" lon="-0.92782">
        <ele>131.9</ele>
      </trkpt>
      <trkpt lat="46.8595" lon="-0.92783">
        <ele>133.6</ele>
      </trkpt>
      <trkpt lat="46.8593" lon="-0.92766">
        <ele>136</ele>
      </trkpt>
      <trkpt lat="46.859" lon="-0.92747">
        <ele>137.2</ele>
      </trkpt>
      <trkpt lat="46.85861" lon="-0.92726">
        <ele>138.7</ele>
      </trkpt>
      <trkpt lat="46.85835" lon="-0.92717">
        <ele>141</ele>
      </trkpt>
      <trkpt lat="46.85809" lon="-0.92719">
        <ele>141.4</ele>
      </trkpt>
      <trkpt lat="46.85786" lon="-0.92728">
        <ele>142.1</ele>
      </trkpt>
      <trkpt lat="46.85759" lon="-0.92758">
        <ele>142.6</ele>
      </trkpt>
      <trkpt lat="46.85723" lon="-0.92799">
        <ele>144</ele>
      </trkpt>
      <trkpt lat="46.8569" lon="-0.92821">
        <ele>145.7</ele>
      </trkpt>
      <trkpt lat="46.85649" lon="-0.92838">
        <ele>148.4</ele>
      </trkpt>
      <trkpt lat="46.85611" lon="-0.92847">
        <ele>152</ele>
      </trkpt>
      <trkpt lat="46.85567" lon="-0.92865">
        <ele>154.8</ele>
      </trkpt>
      <trkpt lat="46.85533" lon="-0.92901">
        <ele>156.9</ele>
      </trkpt>
      <trkpt lat="46.85498" lon="-0.92941">
        <ele>156.9</ele>
      </trkpt>
      <trkpt lat="46.85462" lon="-0.9301">
        <ele>155.6</ele>
      </trkpt>
      <trkpt lat="46.85435" lon="-0.93063">
        <ele>155</ele>
      </trkpt>
      <trkpt lat="46.85391" lon="-0.93111">
        <ele>155.9</ele>
      </trkpt>
      <trkpt lat="46.8536" lon="-0.93132">
        <ele>157.3</ele>
      </trkpt>
      <trkpt lat="46.85302" lon="-0.93171">
        <ele>160.3</ele>
      </trkpt>
      <trkpt lat="46.85241" lon="-0.93213">
        <ele>165.1</ele>
      </trkpt>
      <trkpt lat="46.85214" lon="-0.93224">
        <ele>166.6</ele>
      </trkpt>
      <trkpt lat="46.85181" lon="-0.93221">
        <ele>168.6</ele>
      </trkpt>
      <trkpt lat="46.85141" lon="-0.93211">
        <ele>168.5</ele>
      </trkpt>
      <trkpt lat="46.85102" lon="-0.932">
        <ele>168.6</ele>
      </trkpt>
      <trkpt lat="46.85084" lon="-0.93181">
        <ele>170</ele>
      </trkpt>
      <trkpt lat="46.85066" lon="-0.93168">
        <ele>170.9</ele>
      </trkpt>
      <trkpt lat="46.85054" lon="-0.93162">
        <ele>171.3</ele>
      </trkpt>
      <trkpt lat="46.8504" lon="-0.93164">
        <ele>171.1</ele>
      </trkpt>
      <trkpt lat="46.85022" lon="-0.93172">
        <ele>170.2</ele>
      </trkpt>
      <trkpt lat="46.85008" lon="-0.93162">
        <ele>169.9</ele>
      </trkpt>
      <trkpt lat="46.84988" lon="-0.93151">
        <ele>169.3</ele>
      </trkpt>
      <trkpt lat="46.84957" lon="-0.93134">
        <ele>168.2</ele>
      </trkpt>
      <trkpt lat="46.84922" lon="-0.93111">
        <ele>168.2</ele>
      </trkpt>
      <trkpt lat="46.84894" lon="-0.93097">
        <ele>168.1</ele>
      </trkpt>
      <trkpt lat="46.84864" lon="-0.93092">
        <ele>168.7</ele>
      </trkpt>
      <trkpt lat="46.84813" lon="-0.93098">
        <ele>168.9</ele>
      </trkpt>
      <trkpt lat="46.84765" lon="-0.93111">
        <ele>169.4</ele>
      </trkpt>
      <trkpt lat="46.8472" lon="-0.9313">
        <ele>169.8</ele>
      </trkpt>
      <trkpt lat="46.84653" lon="-0.93168">
        <ele>170.4</ele>
      </trkpt>
      <trkpt lat="46.84648" lon="-0.9317">
        <ele>170.3</ele>
      </trkpt>
      <trkpt lat="46.84608" lon="-0.93198">
        <ele>170.6</ele>
      </trkpt>
      <trkpt lat="46.84536" lon="-0.9324">
        <ele>170.6</ele>
      </trkpt>
      <trkpt lat="46.84448" lon="-0.93297">
        <ele>168.9</ele>
      </trkpt>
      <trkpt lat="46.8434" lon="-0.9336">
        <ele>164.8</ele>
      </trkpt>
      <trkpt lat="46.84307" lon="-0.93371">
        <ele>165.3</ele>
      </trkpt>
      <trkpt lat="46.84271" lon="-0.93368">
        <ele>166</ele>
      </trkpt>
      <trkpt lat="46.84197" lon="-0.93354">
        <ele>167.3</ele>
      </trkpt>
      <trkpt lat="46.84121" lon="-0.93338">
        <ele>166.8</ele>
      </trkpt>
      <trkpt lat="46.84075" lon="-0.93316">
        <ele>166.9</ele>
      </trkpt>
      <trkpt lat="46.84005" lon="-0.93283">
        <ele>166.2</ele>
      </trkpt>
      <trkpt lat="46.83986" lon="-0.93277">
        <ele>166</ele>
      </trkpt>
      <trkpt lat="46.83942" lon="-0.93295">
        <ele>166</ele>
      </trkpt>
      <trkpt lat="46.83902" lon="-0.93309">
        <ele>165.9</ele>
      </trkpt>
      <trkpt lat="46.83866" lon="-0.93313">
        <ele>165.7</ele>
      </trkpt>
      <trkpt lat="46.83814" lon="-0.93322">
        <ele>166.2</ele>
      </trkpt>
      <trkpt lat="46.83774" lon="-0.93329">
        <ele>166.2</ele>
      </trkpt>
      <trkpt lat="46.8375" lon="-0.93322">
        <ele>166.4</ele>
      </trkpt>
      <trkpt lat="46.83672" lon="-0.9331">
        <ele>165.3</ele>
      </trkpt>
      <trkpt lat="46.83615" lon="-0.93289">
        <ele>163.9</ele>
      </trkpt>
      <trkpt lat="46.83577" lon="-0.93271">
        <ele>162.3</ele>
      </trkpt>
      <trkpt lat="46.83546" lon="-0.93262">
        <ele>160.5</ele>
      </trkpt>
      <trkpt lat="46.83516" lon="-0.93264">
        <ele>159.1</ele>
      </trkpt>
      <trkpt lat="46.83452" lon="-0.9328">
        <ele>157.3</ele>
      </trkpt>
      <trkpt lat="46.83397" lon="-0.9328">
        <ele>156.1</ele>
      </trkpt>
      <trkpt lat="46.83359" lon="-0.93275">
        <ele>155.8</ele>
      </trkpt>
      <trkpt lat="46.83341" lon="-0.93272">
        <ele>155.1</ele>
      </trkpt>
      <trkpt lat="46.83318" lon="-0.93281">
        <ele>154.1</ele>
      </trkpt>
      <trkpt lat="46.83288" lon="-0.93284">
        <ele>151.8</ele>
      </trkpt>
      <trkpt lat="46.83251" lon="-0.93284">
        <ele>150</ele>
      </trkpt>
      <trkpt lat="46.8316" lon="-0.93279">
        <ele>144.8</ele>
      </trkpt>
      <trkpt lat="46.83059" lon="-0.93279">
        <ele>141.1</ele>
      </trkpt>
      <trkpt lat="46.82973" lon="-0.93277">
        <ele>138</ele>
      </trkpt>
      <trkpt lat="46.82919" lon="-0.93273">
        <ele>137.2</ele>
      </trkpt>
      <trkpt lat="46.82886" lon="-0.93256">
        <ele>136.6</ele>
      </trkpt>
      <trkpt lat="46.82847" lon="-0.93231">
        <ele>133.8</ele>
      </trkpt>
      <trkpt lat="46.82801" lon="-0.93193">
        <ele>132.3</ele>
      </trkpt>
      <trkpt lat="46.82745" lon="-0.93161">
        <ele>136.5</ele>
      </trkpt>
      <trkpt lat="46.82665" lon="-0.93137">
        <ele>136</ele>
      </trkpt>
      <trkpt lat="46.8257" lon="-0.9313">
        <ele>131.7</ele>
      </trkpt>
      <trkpt lat="46.82491" lon="-0.93121">
        <ele>127.9</ele>
      </trkpt>
      <trkpt lat="46.82429" lon="-0.93118">
        <ele>125.4</ele>
      </trkpt>
      <trkpt lat="46.82388" lon="-0.93122">
        <ele>125</ele>
      </trkpt>
      <trkpt lat="46.82312" lon="-0.93146">
        <ele>125.5</ele>
      </trkpt>
      <trkpt lat="46.82273" lon="-0.9315">
        <ele>127.1</ele>
      </trkpt>
      <trkpt lat="46.82233" lon="-0.93149">
        <ele>128.3</ele>
      </trkpt>
      <trkpt lat="46.82194" lon="-0.93138">
        <ele>129.1</ele>
      </trkpt>
      <trkpt lat="46.82159" lon="-0.93127">
        <ele>129.7</ele>
      </trkpt>
      <trkpt lat="46.82123" lon="-0.9311">
        <ele>131</ele>
      </trkpt>
      <trkpt lat="46.82091" lon="-0.93075">
        <ele>133.5</ele>
      </trkpt>
      <trkpt lat="46.82041" lon="-0.93021">
        <ele>136.8</ele>
      </trkpt>
      <trkpt lat="46.82008" lon="-0.92992">
        <ele>138.7</ele>
      </trkpt>
      <trkpt lat="46.81981" lon="-0.92975">
        <ele>139.6</ele>
      </trkpt>
      <trkpt lat="46.81958" lon="-0.92968">
        <ele>140.1</ele>
      </trkpt>
      <trkpt lat="46.81918" lon="-0.92967">
        <ele>141.1</ele>
      </trkpt>
      <trkpt lat="46.81858" lon="-0.92978">
        <ele>142</ele>
      </trkpt>
      <trkpt lat="46.8182" lon="-0.92992">
        <ele>142</ele>
      </trkpt>
      <trkpt lat="46.81788" lon="-0.9301">
        <ele>141.8</ele>
      </trkpt>
      <trkpt lat="46.81749" lon="-0.93043">
        <ele>140.5</ele>
      </trkpt>
      <trkpt lat="46.81727" lon="-0.93052">
        <ele>140.1</ele>
      </trkpt>
      <trkpt lat="46.81691" lon="-0.93063">
        <ele>139.8</ele>
      </trkpt>
      <trkpt lat="46.81655" lon="-0.93073">
        <ele>140.4</ele>
      </trkpt>
      <trkpt lat="46.81613" lon="-0.93098">
        <ele>140.4</ele>
      </trkpt>
      <trkpt lat="46.81547" lon="-0.93146">
        <ele>140.5</ele>
      </trkpt>
      <trkpt lat="46.81489" lon="-0.93186">
        <ele>140</ele>
      </trkpt>
      <trkpt lat="46.81449" lon="-0.93205">
        <ele>140</ele>
      </trkpt>
      <trkpt lat="46.81425" lon="-0.93205">
        <ele>139.3</ele>
      </trkpt>
      <trkpt lat="46.81381" lon="-0.93211">
        <ele>138.7</ele>
      </trkpt>
      <trkpt lat="46.81312" lon="-0.93212">
        <ele>136.7</ele>
      </trkpt>
      <trkpt lat="46.81236" lon="-0.93213">
        <ele>135.3</ele>
      </trkpt>
      <trkpt lat="46.81131" lon="-0.93228">
        <ele>132.1</ele>
      </trkpt>
      <trkpt lat="46.81036" lon="-0.93252">
        <ele>129.4</ele>
      </trkpt>
      <trkpt lat="46.80994" lon="-0.93266">
        <ele>128.3</ele>
      </trkpt>
      <trkpt lat="46.80958" lon="-0.93273">
        <ele>126.8</ele>
      </trkpt>
      <trkpt lat="46.80916" lon="-0.93273">
        <ele>124.8</ele>
      </trkpt>
      <trkpt lat="46.80834" lon="-0.93235">
        <ele>120.5</ele>
      </trkpt>
      <trkpt lat="46.8076" lon="-0.93196">
        <ele>121.6</ele>
      </trkpt>
      <trkpt lat="46.80732" lon="-0.93188">
        <ele>124.4</ele>
      </trkpt>
      <trkpt lat="46.80711" lon="-0.93194">
        <ele>125.8</ele>
      </trkpt>
      <trkpt lat="46.80678" lon="-0.93208">
        <ele>127.6</ele>
      </trkpt>
      <trkpt lat="46.80643" lon="-0.93229">
        <ele>129.5</ele>
      </trkpt>
      <trkpt lat="46.80591" lon="-0.93251">
        <ele>131.7</ele>
      </trkpt>
      <trkpt lat="46.80565" lon="-0.93252">
        <ele>133.3</ele>
      </trkpt>
      <trkpt lat="46.80518" lon="-0.9325">
        <ele>135.7</ele>
      </trkpt>
      <trkpt lat="46.80471" lon="-0.93245">
        <ele>139.1</ele>
      </trkpt>
      <trkpt lat="46.80445" lon="-0.93225">
        <ele>141</ele>
      </trkpt>
      <trkpt lat="46.80408" lon="-0.93185">
        <ele>141</ele>
      </trkpt>
      <trkpt lat="46.80359" lon="-0.93138">
        <ele>140.9</ele>
      </trkpt>
      <trkpt lat="46.80313" lon="-0.93088">
        <ele>139.8</ele>
      </trkpt>
      <trkpt lat="46.80214" lon="-0.92956">
        <ele>138.6</ele>
      </trkpt>
      <trkpt lat="46.80177" lon="-0.92908">
        <ele>138.6</ele>
      </trkpt>
      <trkpt lat="46.80112" lon="-0.92841">
        <ele>137.7</ele>
      </trkpt>
      <trkpt lat="46.80071" lon="-0.92804">
        <ele>138</ele>
      </trkpt>
      <trkpt lat="46.80029" lon="-0.92781">
        <ele>139</ele>
      </trkpt>
      <trkpt lat="46.79924" lon="-0.9273">
        <ele>141.2</ele>
      </trkpt>
      <trkpt lat="46.79829" lon="-0.92685">
        <ele>142.5</ele>
      </trkpt>
      <trkpt lat="46.79759" lon="-0.92656">
        <ele>140.6</ele>
      </trkpt>
      <trkpt lat="46.79712" lon="-0.92653">
        <ele>139.1</ele>
      </trkpt>
      <trkpt lat="46.79688" lon="-0.92644">
        <ele>138</ele>
      </trkpt>
      <trkpt lat="46.79665" lon="-0.92639">
        <ele>137</ele>
      </trkpt>
      <trkpt lat="46.79635" lon="-0.92641">
        <ele>137</ele>
      </trkpt>
      <trkpt lat="46.79612" lon="-0.92646">
        <ele>136</ele>
      </trkpt>
      <trkpt lat="46.79577" lon="-0.92649">
        <ele>135.2</ele>
      </trkpt>
      <trkpt lat="46.7954" lon="-0.92635">
        <ele>133.3</ele>
      </trkpt>
      <trkpt lat="46.79471" lon="-0.92602">
        <ele>129.2</ele>
      </trkpt>
      <trkpt lat="46.79431" lon="-0.92577">
        <ele>126</ele>
      </trkpt>
      <trkpt lat="46.79397" lon="-0.92522">
        <ele>124.2</ele>
      </trkpt>
      <trkpt lat="46.79363" lon="-0.92456">
        <ele>119.7</ele>
      </trkpt>
      <trkpt lat="46.79347" lon="-0.92434">
        <ele>117.8</ele>
      </trkpt>
      <trkpt lat="46.79325" lon="-0.92431">
        <ele>116.2</ele>
      </trkpt>
      <trkpt lat="46.79306" lon="-0.92441">
        <ele>115.9</ele>
      </trkpt>
      <trkpt lat="46.79277" lon="-0.92494">
        <ele>118.8</ele>
      </trkpt>
      <trkpt lat="46.79251" lon="-0.92552">
        <ele>121</ele>
        <time>2018-08-30T02:24:07Z</time>
      </trkpt>
      <trkpt lat="46.79191" lon="-0.92604">
        <ele>125</ele>
        <time>2018-08-30T02:25:07Z</time>
      </trkpt>
      <trkpt lat="46.79156" lon="-0.92656">
        <ele>129</ele>
        <time>2018-08-30T02:26:07Z</time>
      </trkpt>
      <trkpt lat="46.79139" lon="-0.92665">
        <ele>130</ele>
        <time>2018-08-30T02:27:07Z</time>
      </trkpt>
      <trkpt lat="46.79062" lon="-0.92676">
        <ele>132</ele>
        <time>2018-08-30T02:28:07Z</time>
      </trkpt>
      <trkpt lat="46.79046" lon="-0.92681">
        <ele>133</ele>
        <time>2018-08-30T02:29:07Z</time>
      </trkpt>
      <trkpt lat="46.79032" lon="-0.92697">
        <ele>133</ele>
        <time>2018-08-30T02:30:07Z</time>
      </trkpt>
      <trkpt lat="46.78991" lon="-0.92748">
        <ele>133</ele>
        <time>2018-08-30T02:31:07Z</time>
      </trkpt>
      <trkpt lat="46.78969" lon="-0.92771">
        <ele>133</ele>
        <time>2018-08-30T02:32:07Z</time>
      </trkpt>
      <trkpt lat="46.78949" lon="-0.92802">
        <ele>132</ele>
        <time>2018-08-30T02:33:07Z</time>
      </trkpt>
      <trkpt lat="46.78936" lon="-0.92828">
        <ele>132</ele>
        <time>2018-08-30T02:34:07Z</time>
      </trkpt>
      <trkpt lat="46.78927" lon="-0.92861">
        <ele>131</ele>
        <time>2018-08-30T02:35:07Z</time>
      </trkpt>
      <trkpt lat="46.7892" lon="-0.92894">
        <ele>130</ele>
        <time>2018-08-30T02:36:07Z</time>
      </trkpt>
      <trkpt lat="46.7892" lon="-0.92923">
        <ele>129</ele>
        <time>2018-08-30T02:37:07Z</time>
      </trkpt>
      <trkpt lat="46.78922" lon="-0.92961">
        <ele>129</ele>
        <time>2018-08-30T02:38:07Z</time>
      </trkpt>
      <trkpt lat="46.7893" lon="-0.93001">
        <ele>129</ele>
        <time>2018-08-30T02:39:07Z</time>
      </trkpt>
      <trkpt lat="46.7893" lon="-0.93001">
        <ele>129</ele>
        <time>2018-08-30T02:40:07Z</time>
      </trkpt>
      <trkpt lat="46.78941" lon="-0.93035">
        <ele>130</ele>
        <time>2018-08-30T02:41:07Z</time>
      </trkpt>
      <trkpt lat="46.78962" lon="-0.93086">
        <ele>131</ele>
        <time>2018-08-30T02:42:07Z</time>
      </trkpt>
      <trkpt lat="46.78915" lon="-0.93143">
        <ele>128</ele>
        <time>2018-08-30T02:43:07Z</time>
      </trkpt>
      <trkpt lat="46.78851" lon="-0.93211">
        <ele>125</ele>
        <time>2018-08-30T02:44:07Z</time>
      </trkpt>
      <trkpt lat="46.78715" lon="-0.93375">
        <ele>122</ele>
        <time>2018-08-30T02:45:07Z</time>
      </trkpt>
      <trkpt lat="46.78703" lon="-0.93399">
        <ele>122</ele>
        <time>2018-08-30T02:46:07Z</time>
      </trkpt>
      <trkpt lat="46.78688" lon="-0.93446">
        <ele>122</ele>
        <time>2018-08-30T02:47:07Z</time>
      </trkpt>
      <trkpt lat="46.78666" lon="-0.93561">
        <ele>122</ele>
        <time>2018-08-30T02:48:07Z</time>
      </trkpt>
      <trkpt lat="46.78643" lon="-0.93651">
        <ele>122</ele>
        <time>2018-08-30T02:49:07Z</time>
      </trkpt>
      <trkpt lat="46.78628" lon="-0.93683">
        <ele>122</ele>
        <time>2018-08-30T02:50:07Z</time>
      </trkpt>
      <trkpt lat="46.78551" lon="-0.938">
        <ele>121</ele>
        <time>2018-08-30T02:51:07Z</time>
      </trkpt>
      <trkpt lat="46.78451" lon="-0.93921">
        <ele>118</ele>
        <time>2018-08-30T02:52:07Z</time>
      </trkpt>
      <trkpt lat="46.78325" lon="-0.9405">
        <ele>117</ele>
        <time>2018-08-30T02:53:07Z</time>
      </trkpt>
      <trkpt lat="46.78224" lon="-0.94136">
        <ele>115</ele>
        <time>2018-08-30T02:54:07Z</time>
      </trkpt>
      <trkpt lat="46.78203" lon="-0.94159">
        <ele>114</ele>
        <time>2018-08-30T02:55:07Z</time>
      </trkpt>
      <trkpt lat="46.782" lon="-0.94165">
        <ele>114</ele>
        <time>2018-08-30T02:56:07Z</time>
      </trkpt>
      <trkpt lat="46.782" lon="-0.94165">
        <ele>114</ele>
        <time>2018-08-30T02:57:07Z</time>
      </trkpt>
      <trkpt lat="46.78122" lon="-0.94311">
        <ele>113</ele>
        <time>2018-08-30T02:58:07Z</time>
      </trkpt>
      <trkpt lat="46.78081" lon="-0.94364">
        <ele>113</ele>
        <time>2018-08-30T02:59:07Z</time>
      </trkpt>
      <trkpt lat="46.78038" lon="-0.94396">
        <ele>112</ele>
        <time>2018-08-30T03:00:07Z</time>
      </trkpt>
      <trkpt lat="46.7794" lon="-0.94438">
        <ele>111</ele>
        <time>2018-08-30T03:01:07Z</time>
      </trkpt>
      <trkpt lat="46.77908" lon="-0.94458">
        <ele>109</ele>
        <time>2018-08-30T03:02:07Z</time>
      </trkpt>
      <trkpt lat="46.77815" lon="-0.94565">
        <ele>104</ele>
        <time>2018-08-30T03:03:07Z</time>
      </trkpt>
      <trkpt lat="46.77781" lon="-0.94597">
        <ele>105</ele>
        <time>2018-08-30T03:04:07Z</time>
      </trkpt>
      <trkpt lat="46.77472" lon="-0.94856">
        <ele>113</ele>
        <time>2018-08-30T03:05:07Z</time>
      </trkpt>
      <trkpt lat="46.77461" lon="-0.94868">
        <ele>114</ele>
        <time>2018-08-30T03:06:07Z</time>
      </trkpt>
      <trkpt lat="46.77461" lon="-0.94868">
        <ele>114</ele>
        <time>2018-08-30T03:07:07Z</time>
      </trkpt>
      <trkpt lat="46.77442" lon="-0.94887">
        <ele>115</ele>
        <time>2018-08-30T03:08:07Z</time>
      </trkpt>
      <trkpt lat="46.7732" lon="-0.95062">
        <ele>117</ele>
        <time>2018-08-30T03:09:07Z</time>
      </trkpt>
      <trkpt lat="46.77275" lon="-0.95157">
        <ele>114</ele>
        <time>2018-08-30T03:10:07Z</time>
      </trkpt>
      <trkpt lat="46.77257" lon="-0.9518">
        <ele>113</ele>
        <time>2018-08-30T03:11:07Z</time>
      </trkpt>
      <trkpt lat="46.77235" lon="-0.95194">
        <ele>113</ele>
        <time>2018-08-30T03:12:07Z</time>
      </trkpt>
      <trkpt lat="46.77207" lon="-0.95199">
        <ele>113</ele>
        <time>2018-08-30T03:13:07Z</time>
      </trkpt>
      <trkpt lat="46.77148" lon="-0.95193">
        <ele>114</ele>
        <time>2018-08-30T03:14:07Z</time>
      </trkpt>
      <trkpt lat="46.77099" lon="-0.95195">
        <ele>114</ele>
        <time>2018-08-30T03:15:07Z</time>
      </trkpt>
      <trkpt lat="46.77004" lon="-0.95211">
        <ele>111</ele>
        <time>2018-08-30T03:16:07Z</time>
      </trkpt>
      <trkpt lat="46.76943" lon="-0.9523">
        <ele>108</ele>
        <time>2018-08-30T03:17:07Z</time>
      </trkpt>
      <trkpt lat="46.7688" lon="-0.95263">
        <ele>104</ele>
        <time>2018-08-30T03:18:07Z</time>
      </trkpt>
      <trkpt lat="46.7683" lon="-0.95299">
        <ele>100</ele>
        <time>2018-08-30T03:19:07Z</time>
      </trkpt>
      <trkpt lat="46.76789" lon="-0.95333">
        <ele>98</ele>
        <time>2018-08-30T03:20:07Z</time>
      </trkpt>
      <trkpt lat="46.76731" lon="-0.95401">
        <ele>98</ele>
        <time>2018-08-30T03:21:07Z</time>
      </trkpt>
      <trkpt lat="46.76718" lon="-0.95413">
        <ele>100</ele>
        <time>2018-08-30T03:22:07Z</time>
      </trkpt>
      <trkpt lat="46.76718" lon="-0.95413">
        <ele>100</ele>
        <time>2018-08-30T03:23:07Z</time>
      </trkpt>
      <trkpt lat="46.76708" lon="-0.95421">
        <ele>101</ele>
        <time>2018-08-30T03:24:07Z</time>
      </trkpt>
      <trkpt lat="46.76679" lon="-0.95434">
        <ele>103</ele>
        <time>2018-08-30T03:25:07Z</time>
      </trkpt>
      <trkpt lat="46.76608" lon="-0.95447">
        <ele>105</ele>
        <time>2018-08-30T03:26:07Z</time>
      </trkpt>
      <trkpt lat="46.76576" lon="-0.95466">
        <ele>106</ele>
        <time>2018-08-30T03:27:07Z</time>
      </trkpt>
      <trkpt lat="46.76485" lon="-0.95531">
        <ele>110</ele>
        <time>2018-08-30T03:28:07Z</time>
      </trkpt>
      <trkpt lat="46.76358" lon="-0.95639">
        <ele>111</ele>
        <time>2018-08-30T03:29:07Z</time>
      </trkpt>
      <trkpt lat="46.7631" lon="-0.95698">
        <ele>109</ele>
        <time>2018-08-30T03:30:07Z</time>
      </trkpt>
      <trkpt lat="46.76268" lon="-0.9578">
        <ele>109</ele>
        <time>2018-08-30T03:31:07Z</time>
      </trkpt>
      <trkpt lat="46.7625" lon="-0.95807">
        <ele>109</ele>
        <time>2018-08-30T03:32:07Z</time>
      </trkpt>
      <trkpt lat="46.762" lon="-0.95859">
        <ele>105</ele>
        <time>2018-08-30T03:33:07Z</time>
      </trkpt>
      <trkpt lat="46.76117" lon="-0.95937">
        <ele>103</ele>
        <time>2018-08-30T03:34:07Z</time>
      </trkpt>
      <trkpt lat="46.76093" lon="-0.95966">
        <ele>103</ele>
        <time>2018-08-30T03:35:07Z</time>
      </trkpt>
      <trkpt lat="46.76082" lon="-0.95983">
        <ele>104</ele>
        <time>2018-08-30T03:36:07Z</time>
      </trkpt>
      <trkpt lat="46.76062" lon="-0.96022">
        <ele>105</ele>
        <time>2018-08-30T03:37:07Z</time>
      </trkpt>
      <trkpt lat="46.76067" lon="-0.96028">
        <ele>105</ele>
        <time>2018-08-30T03:38:07Z</time>
      </trkpt>
      <trkpt lat="46.7607" lon="-0.96036">
        <ele>105</ele>
        <time>2018-08-30T03:39:07Z</time>
      </trkpt>
      <trkpt lat="46.76071" lon="-0.96045">
        <ele>105</ele>
        <time>2018-08-30T03:40:07Z</time>
      </trkpt>
      <trkpt lat="46.76069" lon="-0.96054">
        <ele>105</ele>
        <time>2018-08-30T03:41:07Z</time>
      </trkpt>
      <trkpt lat="46.76083" lon="-0.96073">
        <ele>105</ele>
        <time>2018-08-30T03:42:07Z</time>
      </trkpt>
      <trkpt lat="46.76103" lon="-0.96117">
        <ele>105</ele>
        <time>2018-08-30T03:43:07Z</time>
      </trkpt>
      <trkpt lat="46.76119" lon="-0.96166">
        <ele>106</ele>
        <time>2018-08-30T03:44:07Z</time>
      </trkpt>
      <trkpt lat="46.76127" lon="-0.96216">
        <ele>108</ele>
        <time>2018-08-30T03:45:07Z</time>
      </trkpt>
      <trkpt lat="46.76128" lon="-0.96257">
        <ele>110</ele>
        <time>2018-08-30T03:46:07Z</time>
      </trkpt>
      <trkpt lat="46.76127" lon="-0.96286">
        <ele>110</ele>
        <time>2018-08-30T03:47:07Z</time>
      </trkpt>
      <trkpt lat="46.76123" lon="-0.96318">
        <ele>110</ele>
        <time>2018-08-30T03:48:07Z</time>
      </trkpt>
      <trkpt lat="46.76115" lon="-0.96357">
        <ele>112</ele>
        <time>2018-08-30T03:49:07Z</time>
      </trkpt>
      <trkpt lat="46.76111" lon="-0.9639">
        <ele>114</ele>
        <time>2018-08-30T03:50:07Z</time>
      </trkpt>
      <trkpt lat="46.76112" lon="-0.96414">
        <ele>115</ele>
        <time>2018-08-30T03:51:07Z</time>
      </trkpt>
      <trkpt lat="46.76112" lon="-0.96414">
        <ele>115</ele>
        <time>2018-08-30T03:52:07Z</time>
      </trkpt>
      <trkpt lat="46.76119" lon="-0.96575">
        <ele>117</ele>
        <time>2018-08-30T03:53:07Z</time>
      </trkpt>
      <trkpt lat="46.76117" lon="-0.96615">
        <ele>118</ele>
        <time>2018-08-30T03:54:07Z</time>
      </trkpt>
      <trkpt lat="46.76111" lon="-0.96657">
        <ele>118</ele>
        <time>2018-08-30T03:55:07Z</time>
      </trkpt>
      <trkpt lat="46.76062" lon="-0.96936">
        <ele>120</ele>
        <time>2018-08-30T03:56:07Z</time>
      </trkpt>
      <trkpt lat="46.76041" lon="-0.971">
        <ele>119</ele>
        <time>2018-08-30T03:57:07Z</time>
      </trkpt>
      <trkpt lat="46.76033" lon="-0.97138">
        <ele>119</ele>
        <time>2018-08-30T03:58:07Z</time>
      </trkpt>
      <trkpt lat="46.7602" lon="-0.97176">
        <ele>119</ele>
        <time>2018-08-30T03:59:07Z</time>
      </trkpt>
      <trkpt lat="46.76001" lon="-0.9721">
        <ele>118</ele>
        <time>2018-08-30T04:00:07Z</time>
      </trkpt>
      <trkpt lat="46.75942" lon="-0.97302">
        <ele>115</ele>
        <time>2018-08-30T04:01:07Z</time>
      </trkpt>
      <trkpt lat="46.75927" lon="-0.9733">
        <ele>115</ele>
        <time>2018-08-30T04:02:07Z</time>
      </trkpt>
      <trkpt lat="46.75913" lon="-0.97373">
        <ele>114</ele>
        <time>2018-08-30T04:03:07Z</time>
      </trkpt>
      <trkpt lat="46.75897" lon="-0.97409">
        <ele>113</ele>
        <time>2018-08-30T04:04:07Z</time>
      </trkpt>
      <trkpt lat="46.75865" lon="-0.9747">
        <ele>112</ele>
        <time>2018-08-30T04:05:07Z</time>
      </trkpt>
      <trkpt lat="46.75865" lon="-0.9747">
        <ele>112</ele>
        <time>2018-08-30T04:06:07Z</time>
      </trkpt>
      <trkpt lat="46.75786" lon="-0.9762">
        <ele>109</ele>
        <time>2018-08-30T04:07:07Z</time>
      </trkpt>
      <trkpt lat="46.75765" lon="-0.97676">
        <ele>108</ele>
        <time>2018-08-30T04:08:07Z</time>
      </trkpt>
      <trkpt lat="46.75749" lon="-0.97746">
        <ele>107</ele>
        <time>2018-08-30T04:09:07Z</time>
      </trkpt>
      <trkpt lat="46.75744" lon="-0.97781">
        <ele>106</ele>
        <time>2018-08-30T04:10:07Z</time>
      </trkpt>
      <trkpt lat="46.75743" lon="-0.97821">
        <ele>105</ele>
        <time>2018-08-30T04:11:07Z</time>
      </trkpt>
      <trkpt lat="46.75746" lon="-0.97862">
        <ele>105</ele>
        <time>2018-08-30T04:12:07Z</time>
      </trkpt>
      <trkpt lat="46.75827" lon="-0.98408">
        <ele>106</ele>
        <time>2018-08-30T04:13:07Z</time>
      </trkpt>
      <trkpt lat="46.7583" lon="-0.98436">
        <ele>106</ele>
        <time>2018-08-30T04:14:07Z</time>
      </trkpt>
      <trkpt lat="46.7583" lon="-0.98452">
        <ele>105</ele>
        <time>2018-08-30T04:15:07Z</time>
      </trkpt>
      <trkpt lat="46.75827" lon="-0.98469">
        <ele>105</ele>
        <time>2018-08-30T04:16:07Z</time>
      </trkpt>
      <trkpt lat="46.75824" lon="-0.9848">
        <ele>105</ele>
        <time>2018-08-30T04:17:07Z</time>
      </trkpt>
      <trkpt lat="46.75812" lon="-0.98502">
        <ele>104</ele>
        <time>2018-08-30T04:18:07Z</time>
      </trkpt>
      <trkpt lat="46.75812" lon="-0.98502">
        <ele>104</ele>
        <time>2018-08-30T04:19:07Z</time>
      </trkpt>
      <trkpt lat="46.75793" lon="-0.98544">
        <ele>103</ele>
        <time>2018-08-30T04:20:07Z</time>
      </trkpt>
      <trkpt lat="46.75791" lon="-0.98555">
        <ele>103</ele>
        <time>2018-08-30T04:21:07Z</time>
      </trkpt>
      <trkpt lat="46.75794" lon="-0.98581">
        <ele>103</ele>
        <time>2018-08-30T04:22:07Z</time>
      </trkpt>
      <trkpt lat="46.7593" lon="-0.98925">
        <ele>104</ele>
        <time>2018-08-30T04:23:07Z</time>
      </trkpt>
      <trkpt lat="46.7594" lon="-0.98967">
        <ele>104</ele>
        <time>2018-08-30T04:24:07Z</time>
      </trkpt>
      <trkpt lat="46.75944" lon="-0.99008">
        <ele>104</ele>
        <time>2018-08-30T04:25:07Z</time>
      </trkpt>
      <trkpt lat="46.75946" lon="-0.99057">
        <ele>104</ele>
        <time>2018-08-30T04:26:07Z</time>
      </trkpt>
      <trkpt lat="46.75944" lon="-0.99425">
        <ele>102</ele>
        <time>2018-08-30T04:27:07Z</time>
      </trkpt>
      <trkpt lat="46.75946" lon="-0.99457">
        <ele>102</ele>
        <time>2018-08-30T04:28:07Z</time>
      </trkpt>
      <trkpt lat="46.75955" lon="-0.99496">
        <ele>102</ele>
        <time>2018-08-30T04:29:07Z</time>
      </trkpt>
      <trkpt lat="46.75967" lon="-0.99519">
        <ele>102</ele>
        <time>2018-08-30T04:30:07Z</time>
      </trkpt>
      <trkpt lat="46.75985" lon="-0.99544">
        <ele>102</ele>
        <time>2018-08-30T04:31:07Z</time>
      </trkpt>
      <trkpt lat="46.75985" lon="-0.99544">
        <ele>102</ele>
        <time>2018-08-30T04:32:07Z</time>
      </trkpt>
      <trkpt lat="46.76006" lon="-0.99564">
        <ele>102</ele>
        <time>2018-08-30T04:33:07Z</time>
      </trkpt>
      <trkpt lat="46.76044" lon="-0.9959">
        <ele>102</ele>
        <time>2018-08-30T04:34:07Z</time>
      </trkpt>
      <trkpt lat="46.76119" lon="-0.99629">
        <ele>103</ele>
        <time>2018-08-30T04:35:07Z</time>
      </trkpt>
      <trkpt lat="46.76128" lon="-0.99641">
        <ele>103</ele>
        <time>2018-08-30T04:36:07Z</time>
      </trkpt>
      <trkpt lat="46.76134" lon="-0.9966">
        <ele>103</ele>
        <time>2018-08-30T04:37:07Z</time>
      </trkpt>
      <trkpt lat="46.76142" lon="-0.99738">
        <ele>102</ele>
        <time>2018-08-30T04:38:07Z</time>
      </trkpt>
      <trkpt lat="46.76147" lon="-0.99763">
        <ele>102</ele>
        <time>2018-08-30T04:39:07Z</time>
      </trkpt>
      <trkpt lat="46.76157" lon="-0.99787">
        <ele>102</ele>
        <time>2018-08-30T04:40:07Z</time>
      </trkpt>
      <trkpt lat="46.76484" lon="-1.00232">
        <ele>104</ele>
        <time>2018-08-30T04:41:07Z</time>
      </trkpt>
      <trkpt lat="46.76534" lon="-1.00303">
        <ele>104</ele>
        <time>2018-08-30T04:42:07Z</time>
      </trkpt>
      <trkpt lat="46.76645" lon="-1.00481">
        <ele>104</ele>
        <time>2018-08-30T04:43:07Z</time>
      </trkpt>
      <trkpt lat="46.76665" lon="-1.00519">
        <ele>104</ele>
        <time>2018-08-30T04:44:07Z</time>
      </trkpt>
      <trkpt lat="46.7668" lon="-1.00556">
        <ele>105</ele>
        <time>2018-08-30T04:45:07Z</time>
      </trkpt>
      <trkpt lat="46.76789" lon="-1.00952">
        <ele>105</ele>
        <time>2018-08-30T04:46:07Z</time>
      </trkpt>
      <trkpt lat="46.76802" lon="-1.01016">
        <ele>105</ele>
        <time>2018-08-30T04:47:07Z</time>
      </trkpt>
      <trkpt lat="46.76817" lon="-1.01101">
        <ele>105</ele>
        <time>2018-08-30T04:48:07Z</time>
      </trkpt>
      <trkpt lat="46.76836" lon="-1.01184">
        <ele>106</ele>
        <time>2018-08-30T04:49:07Z</time>
      </trkpt>
      <trkpt lat="46.76876" lon="-1.01322">
        <ele>106</ele>
        <time>2018-08-30T04:50:07Z</time>
      </trkpt>
      <trkpt lat="46.76917" lon="-1.01481">
        <ele>109</ele>
        <time>2018-08-30T04:51:07Z</time>
      </trkpt>
      <trkpt lat="46.76984" lon="-1.01765">
        <ele>108</ele>
        <time>2018-08-30T04:52:07Z</time>
      </trkpt>
      <trkpt lat="46.76984" lon="-1.01765">
        <ele>108</ele>
        <time>2018-08-30T04:53:07Z</time>
      </trkpt>
      <trkpt lat="46.77014" lon="-1.01889">
        <ele>107</ele>
        <time>2018-08-30T04:54:07Z</time>
      </trkpt>
      <trkpt lat="46.7707" lon="-1.02102">
        <ele>106</ele>
        <time>2018-08-30T04:55:07Z</time>
      </trkpt>
      <trkpt lat="46.77126" lon="-1.02299">
        <ele>106</ele>
        <time>2018-08-30T04:56:07Z</time>
      </trkpt>
      <trkpt lat="46.77214" lon="-1.0265">
        <ele>108</ele>
        <time>2018-08-30T04:57:07Z</time>
      </trkpt>
      <trkpt lat="46.77214" lon="-1.0265">
        <ele>108</ele>
        <time>2018-08-30T04:58:07Z</time>
      </trkpt>
      <trkpt lat="46.77262" lon="-1.02844">
        <ele>109</ele>
        <time>2018-08-30T04:59:07Z</time>
      </trkpt>
      <trkpt lat="46.77268" lon="-1.02884">
        <ele>109</ele>
        <time>2018-08-30T05:00:07Z</time>
      </trkpt>
      <trkpt lat="46.77273" lon="-1.02928">
        <ele>109</ele>
        <time>2018-08-30T05:01:07Z</time>
      </trkpt>
      <trkpt lat="46.77279" lon="-1.031">
        <ele>108</ele>
        <time>2018-08-30T05:02:07Z</time>
      </trkpt>
      <trkpt lat="46.77285" lon="-1.0319">
        <ele>107</ele>
        <time>2018-08-30T05:03:07Z</time>
      </trkpt>
      <trkpt lat="46.77328" lon="-1.03535">
        <ele>104</ele>
        <time>2018-08-30T05:04:07Z</time>
      </trkpt>
      <trkpt lat="46.77328" lon="-1.03535">
        <ele>104</ele>
        <time>2018-08-30T05:05:07Z</time>
      </trkpt>
      <trkpt lat="46.77336" lon="-1.03602">
        <ele>103</ele>
        <time>2018-08-30T05:06:07Z</time>
      </trkpt>
      <trkpt lat="46.7734" lon="-1.03668">
        <ele>102</ele>
        <time>2018-08-30T05:07:07Z</time>
      </trkpt>
      <trkpt lat="46.77338" lon="-1.03831">
        <ele>99</ele>
        <time>2018-08-30T05:08:07Z</time>
      </trkpt>
      <trkpt lat="46.77342" lon="-1.03887">
        <ele>98</ele>
        <time>2018-08-30T05:09:07Z</time>
      </trkpt>
      <trkpt lat="46.77439" lon="-1.04266">
        <ele>96</ele>
        <time>2018-08-30T05:10:07Z</time>
      </trkpt>
      <trkpt lat="46.77445" lon="-1.04305">
        <ele>95</ele>
        <time>2018-08-30T05:11:07Z</time>
      </trkpt>
      <trkpt lat="46.77448" lon="-1.04372">
        <ele>95</ele>
        <time>2018-08-30T05:12:07Z</time>
      </trkpt>
      <trkpt lat="46.77448" lon="-1.04372">
        <ele>95</ele>
        <time>2018-08-30T05:13:07Z</time>
      </trkpt>
      <trkpt lat="46.77471" lon="-1.04817">
        <ele>88</ele>
        <time>2018-08-30T05:14:07Z</time>
      </trkpt>
      <trkpt lat="46.77487" lon="-1.04917">
        <ele>83</ele>
        <time>2018-08-30T05:15:07Z</time>
      </trkpt>
      <trkpt lat="46.7749" lon="-1.04951">
        <ele>82</ele>
        <time>2018-08-30T05:16:07Z</time>
      </trkpt>
      <trkpt lat="46.77488" lon="-1.04981">
        <ele>81</ele>
        <time>2018-08-30T05:17:07Z</time>
      </trkpt>
      <trkpt lat="46.77466" lon="-1.05089">
        <ele>81</ele>
        <time>2018-08-30T05:18:07Z</time>
      </trkpt>
      <trkpt lat="46.77462" lon="-1.05138">
        <ele>81</ele>
        <time>2018-08-30T05:19:07Z</time>
      </trkpt>
      <trkpt lat="46.77462" lon="-1.05173">
        <ele>80</ele>
        <time>2018-08-30T05:20:07Z</time>
      </trkpt>
      <trkpt lat="46.77462" lon="-1.05173">
        <ele>80</ele>
        <time>2018-08-30T05:21:07Z</time>
      </trkpt>
      <trkpt lat="46.77463" lon="-1.05242">
        <ele>79</ele>
        <time>2018-08-30T05:22:07Z</time>
      </trkpt>
      <trkpt lat="46.77482" lon="-1.05348">
        <ele>72</ele>
        <time>2018-08-30T05:23:07Z</time>
      </trkpt>
      <trkpt lat="46.77488" lon="-1.05404">
        <ele>67</ele>
        <time>2018-08-30T05:24:07Z</time>
      </trkpt>
      <trkpt lat="46.77488" lon="-1.05432">
        <ele>66</ele>
        <time>2018-08-30T05:25:07Z</time>
      </trkpt>
      <trkpt lat="46.7748" lon="-1.05525">
        <ele>62</ele>
        <time>2018-08-30T05:26:07Z</time>
      </trkpt>
      <trkpt lat="46.77481" lon="-1.05549">
        <ele>61</ele>
        <time>2018-08-30T05:27:07Z</time>
      </trkpt>
      <trkpt lat="46.77487" lon="-1.05568">
        <ele>60</ele>
        <time>2018-08-30T05:28:07Z</time>
      </trkpt>
      <trkpt lat="46.77515" lon="-1.05622">
        <ele>60</ele>
        <time>2018-08-30T05:29:07Z</time>
      </trkpt>
      <trkpt lat="46.77538" lon="-1.05677">
        <ele>60</ele>
        <time>2018-08-30T05:30:07Z</time>
      </trkpt>
      <trkpt lat="46.77566" lon="-1.05757">
        <ele>59</ele>
        <time>2018-08-30T05:31:07Z</time>
      </trkpt>
      <trkpt lat="46.77572" lon="-1.0579">
        <ele>60</ele>
        <time>2018-08-30T05:32:07Z</time>
      </trkpt>
      <trkpt lat="46.77571" lon="-1.05904">
        <ele>63</ele>
        <time>2018-08-30T05:33:07Z</time>
      </trkpt>
      <trkpt lat="46.77575" lon="-1.05933">
        <ele>64</ele>
        <time>2018-08-30T05:34:07Z</time>
      </trkpt>
      <trkpt lat="46.77582" lon="-1.05958">
        <ele>65</ele>
        <time>2018-08-30T05:35:07Z</time>
      </trkpt>
      <trkpt lat="46.77596" lon="-1.05988">
        <ele>66</ele>
        <time>2018-08-30T05:36:07Z</time>
      </trkpt>
      <trkpt lat="46.77604" lon="-1.06001">
        <ele>66</ele>
        <time>2018-08-30T05:37:07Z</time>
      </trkpt>
      <trkpt lat="46.7762" lon="-1.0602">
        <ele>66</ele>
        <time>2018-08-30T05:38:07Z</time>
      </trkpt>
      <trkpt lat="46.7762" lon="-1.0602">
        <ele>66</ele>
        <time>2018-08-30T05:39:07Z</time>
      </trkpt>
      <trkpt lat="46.77634" lon="-1.06032">
        <ele>66</ele>
        <time>2018-08-30T05:40:07Z</time>
      </trkpt>
      <trkpt lat="46.77652" lon="-1.06041">
        <ele>66</ele>
        <time>2018-08-30T05:41:07Z</time>
      </trkpt>
      <trkpt lat="46.77655" lon="-1.06033">
        <ele>65</ele>
        <time>2018-08-30T05:42:07Z</time>
      </trkpt>
      <trkpt lat="46.77662" lon="-1.06029">
        <ele>65</ele>
        <time>2018-08-30T05:43:07Z</time>
      </trkpt>
      <trkpt lat="46.77665" lon="-1.06029">
        <ele>65</ele>
        <time>2018-08-30T05:44:07Z</time>
      </trkpt>
      <trkpt lat="46.77671" lon="-1.06034">
        <ele>65</ele>
        <time>2018-08-30T05:45:07Z</time>
      </trkpt>
      <trkpt lat="46.77673" lon="-1.06039">
        <ele>65</ele>
        <time>2018-08-30T05:46:07Z</time>
      </trkpt>
      <trkpt lat="46.77672" lon="-1.06052">
        <ele>66</ele>
        <time>2018-08-30T05:47:07Z</time>
      </trkpt>
      <trkpt lat="46.77668" lon="-1.06058">
        <ele>67</ele>
        <time>2018-08-30T05:48:07Z</time>
      </trkpt>
      <trkpt lat="46.77662" lon="-1.0606">
        <ele>67</ele>
        <time>2018-08-30T05:49:07Z</time>
      </trkpt>
      <trkpt lat="46.77658" lon="-1.06059">
        <ele>67</ele>
        <time>2018-08-30T05:50:07Z</time>
      </trkpt>
      <trkpt lat="46.77652" lon="-1.06084">
        <ele>69</ele>
        <time>2018-08-30T05:51:07Z</time>
      </trkpt>
      <trkpt lat="46.77642" lon="-1.06132">
        <ele>73</ele>
        <time>2018-08-30T05:52:07Z</time>
      </trkpt>
      <trkpt lat="46.77641" lon="-1.06149">
        <ele>74</ele>
        <time>2018-08-30T05:53:07Z</time>
      </trkpt>
      <trkpt lat="46.77643" lon="-1.06176">
        <ele>76</ele>
        <time>2018-08-30T05:54:07Z</time>
      </trkpt>
      <trkpt lat="46.77657" lon="-1.06244">
        <ele>79</ele>
        <time>2018-08-30T05:55:07Z</time>
      </trkpt>
      <trkpt lat="46.77683" lon="-1.06346">
        <ele>84</ele>
        <time>2018-08-30T05:56:07Z</time>
      </trkpt>
      <trkpt lat="46.77717" lon="-1.06445">
        <ele>90</ele>
        <time>2018-08-30T05:57:07Z</time>
      </trkpt>
      <trkpt lat="46.77724" lon="-1.06445">
        <ele>91</ele>
        <time>2018-08-30T05:58:07Z</time>
      </trkpt>
      <trkpt lat="46.77731" lon="-1.06452">
        <ele>91</ele>
        <time>2018-08-30T05:59:07Z</time>
      </trkpt>
      <trkpt lat="46.77732" lon="-1.06457">
        <ele>91</ele>
        <time>2018-08-30T06:00:07Z</time>
      </trkpt>
      <trkpt lat="46.77745" lon="-1.06453">
        <ele>92</ele>
        <time>2018-08-30T06:01:07Z</time>
      </trkpt>
      <trkpt lat="46.77765" lon="-1.06437">
        <ele>93</ele>
        <time>2018-08-30T06:02:07Z</time>
      </trkpt>
      <trkpt lat="46.77773" lon="-1.06429">
        <ele>93</ele>
        <time>2018-08-30T06:03:07Z</time>
      </trkpt>
      <trkpt lat="46.77773" lon="-1.06429">
        <ele>93</ele>
        <time>2018-08-30T06:04:07Z</time>
      </trkpt>
      <trkpt lat="46.77815" lon="-1.06378">
        <ele>94</ele>
        <time>2018-08-30T06:05:07Z</time>
      </trkpt>
      <trkpt lat="46.77852" lon="-1.06313">
        <ele>94</ele>
        <time>2018-08-30T06:06:07Z</time>
      </trkpt>
      <trkpt lat="46.77863" lon="-1.06297">
        <ele>94</ele>
        <time>2018-08-30T06:07:07Z</time>
      </trkpt>
      <trkpt lat="46.77888" lon="-1.06283">
        <ele>95</ele>
        <time>2018-08-30T06:08:07Z</time>
      </trkpt>
      <trkpt lat="46.77954" lon="-1.06289">
        <ele>97</ele>
        <time>2018-08-30T06:09:07Z</time>
      </trkpt>
      <trkpt lat="46.77977" lon="-1.06277">
        <ele>97</ele>
        <time>2018-08-30T06:10:07Z</time>
      </trkpt>
      <trkpt lat="46.77977" lon="-1.06277">
        <ele>97</ele>
        <time>2018-08-30T06:11:07Z</time>
      </trkpt>
      <trkpt lat="46.78005" lon="-1.06265">
        <ele>97</ele>
        <time>2018-08-30T06:12:07Z</time>
      </trkpt>
      <trkpt lat="46.78023" lon="-1.06254">
        <ele>97</ele>
        <time>2018-08-30T06:13:07Z</time>
      </trkpt>
      <trkpt lat="46.78092" lon="-1.062">
        <ele>97</ele>
        <time>2018-08-30T06:14:07Z</time>
      </trkpt>
      <trkpt lat="46.78161" lon="-1.06179">
        <ele>100</ele>
        <time>2018-08-30T06:15:07Z</time>
      </trkpt>
      <trkpt lat="46.78175" lon="-1.06168">
        <ele>100</ele>
        <time>2018-08-30T06:16:07Z</time>
      </trkpt>
      <trkpt lat="46.7818" lon="-1.06209">
        <ele>100</ele>
        <time>2018-08-30T06:17:07Z</time>
      </trkpt>
      <trkpt lat="46.78181" lon="-1.06241">
        <ele>99</ele>
        <time>2018-08-30T06:18:07Z</time>
      </trkpt>
      <trkpt lat="46.78184" lon="-1.06258">
        <ele>99</ele>
        <time>2018-08-30T06:19:07Z</time>
      </trkpt>
      <trkpt lat="46.7819" lon="-1.06276">
        <ele>99</ele>
        <time>2018-08-30T06:20:07Z</time>
      </trkpt>
      <trkpt lat="46.78197" lon="-1.06293">
        <ele>99</ele>
        <time>2018-08-30T06:21:07Z</time>
      </trkpt>
      <trkpt lat="46.78218" lon="-1.06331">
        <ele>100</ele>
        <time>2018-08-30T06:22:07Z</time>
      </trkpt>
      <trkpt lat="46.78234" lon="-1.06356">
        <ele>100</ele>
        <time>2018-08-30T06:23:07Z</time>
      </trkpt>
      <trkpt lat="46.7824" lon="-1.06363">
        <ele>100</ele>
        <time>2018-08-30T06:24:07Z</time>
      </trkpt>
      <trkpt lat="46.78368" lon="-1.06448">
        <ele>102</ele>
        <time>2018-08-30T06:25:07Z</time>
      </trkpt>
      <trkpt lat="46.78397" lon="-1.06498">
        <ele>102</ele>
        <time>2018-08-30T06:26:07Z</time>
      </trkpt>
      <trkpt lat="46.78429" lon="-1.06539">
        <ele>102</ele>
        <time>2018-08-30T06:27:07Z</time>
      </trkpt>
      <trkpt lat="46.78456" lon="-1.06563">
        <ele>103</ele>
        <time>2018-08-30T06:28:07Z</time>
      </trkpt>
      <trkpt lat="46.78527" lon="-1.06594">
        <ele>104</ele>
        <time>2018-08-30T06:29:07Z</time>
      </trkpt>
      <trkpt lat="46.78558" lon="-1.06603">
        <ele>104</ele>
        <time>2018-08-30T06:30:07Z</time>
      </trkpt>
      <trkpt lat="46.78583" lon="-1.06605">
        <ele>104</ele>
        <time>2018-08-30T06:31:07Z</time>
      </trkpt>
      <trkpt lat="46.78601" lon="-1.06615">
        <ele>104</ele>
        <time>2018-08-30T06:32:07Z</time>
      </trkpt>
      <trkpt lat="46.78679" lon="-1.06719">
        <ele>104</ele>
        <time>2018-08-30T06:33:07Z</time>
      </trkpt>
      <trkpt lat="46.78743" lon="-1.06794">
        <ele>107</ele>
        <time>2018-08-30T06:34:07Z</time>
      </trkpt>
      <trkpt lat="46.78788" lon="-1.06858">
        <ele>106</ele>
        <time>2018-08-30T06:35:07Z</time>
      </trkpt>
      <trkpt lat="46.78812" lon="-1.06928">
        <ele>103</ele>
        <time>2018-08-30T06:36:07Z</time>
      </trkpt>
      <trkpt lat="46.78826" lon="-1.07011">
        <ele>103</ele>
        <time>2018-08-30T06:37:07Z</time>
      </trkpt>
      <trkpt lat="46.78845" lon="-1.07103">
        <ele>103</ele>
        <time>2018-08-30T06:38:07Z</time>
      </trkpt>
      <trkpt lat="46.7888" lon="-1.07179">
        <ele>103</ele>
        <time>2018-08-30T06:39:07Z</time>
      </trkpt>
      <trkpt lat="46.7893" lon="-1.07259">
        <ele>100</ele>
        <time>2018-08-30T06:40:07Z</time>
      </trkpt>
      <trkpt lat="46.78973" lon="-1.07294">
        <ele>94</ele>
        <time>2018-08-30T06:41:07Z</time>
      </trkpt>
      <trkpt lat="46.7904" lon="-1.07366">
        <ele>87</ele>
        <time>2018-08-30T06:42:07Z</time>
      </trkpt>
      <trkpt lat="46.7904" lon="-1.07366">
        <ele>87</ele>
        <time>2018-08-30T06:43:07Z</time>
      </trkpt>
      <trkpt lat="46.79046" lon="-1.07372">
        <ele>87</ele>
        <time>2018-08-30T06:44:07Z</time>
      </trkpt>
      <trkpt lat="46.7907" lon="-1.07384">
        <ele>87</ele>
        <time>2018-08-30T06:45:07Z</time>
      </trkpt>
      <trkpt lat="46.7909" lon="-1.07383">
        <ele>87</ele>
        <time>2018-08-30T06:46:07Z</time>
      </trkpt>
      <trkpt lat="46.79115" lon="-1.07393">
        <ele>88</ele>
        <time>2018-08-30T06:47:07Z</time>
      </trkpt>
      <trkpt lat="46.79131" lon="-1.07415">
        <ele>89</ele>
        <time>2018-08-30T06:48:07Z</time>
      </trkpt>
      <trkpt lat="46.79146" lon="-1.07463">
        <ele>91</ele>
        <time>2018-08-30T06:49:07Z</time>
      </trkpt>
      <trkpt lat="46.7918" lon="-1.07536">
        <ele>94</ele>
        <time>2018-08-30T06:50:07Z</time>
      </trkpt>
      <trkpt lat="46.79205" lon="-1.07586">
        <ele>94</ele>
        <time>2018-08-30T06:51:07Z</time>
      </trkpt>
      <trkpt lat="46.79276" lon="-1.07665">
        <ele>93</ele>
        <time>2018-08-30T06:52:07Z</time>
      </trkpt>
      <trkpt lat="46.79346" lon="-1.07751">
        <ele>93</ele>
        <time>2018-08-30T06:53:07Z</time>
      </trkpt>
      <trkpt lat="46.79406" lon="-1.07867">
        <ele>94</ele>
        <time>2018-08-30T06:54:07Z</time>
      </trkpt>
      <trkpt lat="46.79548" lon="-1.08114">
        <ele>97</ele>
        <time>2018-08-30T06:55:07Z</time>
      </trkpt>
      <trkpt lat="46.79633" lon="-1.08258">
        <ele>96</ele>
        <time>2018-08-30T06:56:07Z</time>
      </trkpt>
      <trkpt lat="46.79728" lon="-1.08434">
        <ele>90</ele>
        <time>2018-08-30T06:57:07Z</time>
      </trkpt>
      <trkpt lat="46.798" lon="-1.0855">
        <ele>87</ele>
        <time>2018-08-30T06:58:07Z</time>
      </trkpt>
      <trkpt lat="46.79862" lon="-1.08673">
        <ele>87</ele>
        <time>2018-08-30T06:59:07Z</time>
      </trkpt>
      <trkpt lat="46.79939" lon="-1.08829">
        <ele>85</ele>
        <time>2018-08-30T07:00:07Z</time>
      </trkpt>
      <trkpt lat="46.79958" lon="-1.08871">
        <ele>85</ele>
        <time>2018-08-30T07:01:07Z</time>
      </trkpt>
      <trkpt lat="46.79973" lon="-1.08962">
        <ele>86</ele>
        <time>2018-08-30T07:02:07Z</time>
      </trkpt>
      <trkpt lat="46.79964" lon="-1.09149">
        <ele>85</ele>
        <time>2018-08-30T07:03:07Z</time>
      </trkpt>
      <trkpt lat="46.79973" lon="-1.09244">
        <ele>85</ele>
        <time>2018-08-30T07:04:07Z</time>
      </trkpt>
      <trkpt lat="46.79988" lon="-1.09293">
        <ele>85</ele>
        <time>2018-08-30T07:05:07Z</time>
      </trkpt>
      <trkpt lat="46.79988" lon="-1.09293">
        <ele>85</ele>
        <time>2018-08-30T07:06:07Z</time>
      </trkpt>
      <trkpt lat="46.8" lon="-1.09334">
        <ele>85</ele>
        <time>2018-08-30T07:07:07Z</time>
      </trkpt>
      <trkpt lat="46.80036" lon="-1.09387">
        <ele>87</ele>
        <time>2018-08-30T07:08:07Z</time>
      </trkpt>
      <trkpt lat="46.80091" lon="-1.09452">
        <ele>89</ele>
        <time>2018-08-30T07:09:07Z</time>
      </trkpt>
      <trkpt lat="46.80113" lon="-1.09499">
        <ele>89</ele>
        <time>2018-08-30T07:10:07Z</time>
      </trkpt>
      <trkpt lat="46.80137" lon="-1.09575">
        <ele>88</ele>
        <time>2018-08-30T07:11:07Z</time>
      </trkpt>
      <trkpt lat="46.80216" lon="-1.09701">
        <ele>84</ele>
        <time>2018-08-30T07:12:07Z</time>
      </trkpt>
      <trkpt lat="46.80262" lon="-1.09804">
        <ele>83</ele>
        <time>2018-08-30T07:13:07Z</time>
      </trkpt>
      <trkpt lat="46.80269" lon="-1.0991">
        <ele>87</ele>
        <time>2018-08-30T07:14:07Z</time>
      </trkpt>
      <trkpt lat="46.80279" lon="-1.09989">
        <ele>91</ele>
        <time>2018-08-30T07:15:07Z</time>
      </trkpt>
      <trkpt lat="46.80316" lon="-1.10164">
        <ele>95</ele>
        <time>2018-08-30T07:16:07Z</time>
      </trkpt>
      <trkpt lat="46.80322" lon="-1.10221">
        <ele>96</ele>
        <time>2018-08-30T07:17:07Z</time>
      </trkpt>
      <trkpt lat="46.80329" lon="-1.10259">
        <ele>97</ele>
        <time>2018-08-30T07:18:07Z</time>
      </trkpt>
      <trkpt lat="46.80359" lon="-1.10348">
        <ele>97</ele>
        <time>2018-08-30T07:19:07Z</time>
      </trkpt>
      <trkpt lat="46.8039" lon="-1.10456">
        <ele>97</ele>
        <time>2018-08-30T07:20:07Z</time>
      </trkpt>
      <trkpt lat="46.80447" lon="-1.10696">
        <ele>95</ele>
        <time>2018-08-30T07:21:07Z</time>
      </trkpt>
      <trkpt lat="46.80475" lon="-1.10758">
        <ele>94</ele>
        <time>2018-08-30T07:22:07Z</time>
      </trkpt>
      <trkpt lat="46.80529" lon="-1.10862">
        <ele>92</ele>
        <time>2018-08-30T07:23:07Z</time>
      </trkpt>
      <trkpt lat="46.80546" lon="-1.109">
        <ele>92</ele>
        <time>2018-08-30T07:24:07Z</time>
      </trkpt>
      <trkpt lat="46.80573" lon="-1.10927">
        <ele>92</ele>
        <time>2018-08-30T07:25:07Z</time>
      </trkpt>
      <trkpt lat="46.80602" lon="-1.10932">
        <ele>92</ele>
        <time>2018-08-30T07:26:07Z</time>
      </trkpt>
      <trkpt lat="46.80653" lon="-1.10951">
        <ele>92</ele>
        <time>2018-08-30T07:27:07Z</time>
      </trkpt>
      <trkpt lat="46.80681" lon="-1.10979">
        <ele>93</ele>
        <time>2018-08-30T07:28:07Z</time>
      </trkpt>
      <trkpt lat="46.80681" lon="-1.10979">
        <ele>93</ele>
        <time>2018-08-30T07:29:07Z</time>
      </trkpt>
      <trkpt lat="46.80702" lon="-1.11">
        <ele>95</ele>
        <time>2018-08-30T07:30:07Z</time>
      </trkpt>
      <trkpt lat="46.808" lon="-1.11118">
        <ele>97</ele>
        <time>2018-08-30T07:31:07Z</time>
      </trkpt>
      <trkpt lat="46.80851" lon="-1.11147">
        <ele>98</ele>
        <time>2018-08-30T07:32:07Z</time>
      </trkpt>
      <trkpt lat="46.81015" lon="-1.11215">
        <ele>100</ele>
        <time>2018-08-30T07:33:07Z</time>
      </trkpt>
      <trkpt lat="46.81058" lon="-1.11211">
        <ele>101</ele>
        <time>2018-08-30T07:34:07Z</time>
      </trkpt>
      <trkpt lat="46.81111" lon="-1.11185">
        <ele>101</ele>
        <time>2018-08-30T07:35:07Z</time>
      </trkpt>
      <trkpt lat="46.81154" lon="-1.11175">
        <ele>102</ele>
        <time>2018-08-30T07:36:07Z</time>
      </trkpt>
      <trkpt lat="46.81195" lon="-1.11189">
        <ele>102</ele>
        <time>2018-08-30T07:37:07Z</time>
      </trkpt>
      <trkpt lat="46.81366" lon="-1.1128">
        <ele>104</ele>
        <time>2018-08-30T07:38:07Z</time>
      </trkpt>
      <trkpt lat="46.81366" lon="-1.1128">
        <ele>104</ele>
        <time>2018-08-30T07:39:07Z</time>
      </trkpt>
      <trkpt lat="46.81449" lon="-1.1132">
        <ele>105</ele>
        <time>2018-08-30T07:40:07Z</time>
      </trkpt>
      <trkpt lat="46.81564" lon="-1.11366">
        <ele>104</ele>
        <time>2018-08-30T07:41:07Z</time>
      </trkpt>
      <trkpt lat="46.81755" lon="-1.11474">
        <ele>100</ele>
        <time>2018-08-30T07:42:07Z</time>
      </trkpt>
      <trkpt lat="46.81905" lon="-1.11549">
        <ele>99</ele>
        <time>2018-08-30T07:43:07Z</time>
      </trkpt>
      <trkpt lat="46.82006" lon="-1.11613">
        <ele>97</ele>
        <time>2018-08-30T07:44:07Z</time>
      </trkpt>
      <trkpt lat="46.82059" lon="-1.11651">
        <ele>97</ele>
        <time>2018-08-30T07:45:07Z</time>
      </trkpt>
      <trkpt lat="46.82059" lon="-1.11651">
        <ele>97</ele>
        <time>2018-08-30T07:46:07Z</time>
      </trkpt>
      <trkpt lat="46.82109" lon="-1.11686">
        <ele>96</ele>
        <time>2018-08-30T07:47:07Z</time>
      </trkpt>
      <trkpt lat="46.82193" lon="-1.11763">
        <ele>95</ele>
        <time>2018-08-30T07:48:07Z</time>
      </trkpt>
      <trkpt lat="46.82223" lon="-1.11779">
        <ele>95</ele>
        <time>2018-08-30T07:49:07Z</time>
      </trkpt>
      <trkpt lat="46.8226" lon="-1.11805">
        <ele>93</ele>
        <time>2018-08-30T07:50:07Z</time>
      </trkpt>
      <trkpt lat="46.82328" lon="-1.11892">
        <ele>92</ele>
        <time>2018-08-30T07:51:07Z</time>
      </trkpt>
      <trkpt lat="46.82438" lon="-1.12049">
        <ele>88</ele>
        <time>2018-08-30T07:52:07Z</time>
      </trkpt>
      <trkpt lat="46.82528" lon="-1.12181">
        <ele>85</ele>
        <time>2018-08-30T07:53:07Z</time>
      </trkpt>
      <trkpt lat="46.82528" lon="-1.12181">
        <ele>85</ele>
        <time>2018-08-30T07:54:07Z</time>
      </trkpt>
      <trkpt lat="46.82541" lon="-1.122">
        <ele>85</ele>
        <time>2018-08-30T07:55:07Z</time>
      </trkpt>
      <trkpt lat="46.82564" lon="-1.12252">
        <ele>85</ele>
        <time>2018-08-30T07:56:07Z</time>
      </trkpt>
      <trkpt lat="46.82678" lon="-1.12461">
        <ele>84</ele>
        <time>2018-08-30T07:57:07Z</time>
      </trkpt>
      <trkpt lat="46.82684" lon="-1.12469">
        <ele>84</ele>
        <time>2018-08-30T07:58:07Z</time>
      </trkpt>
      <trkpt lat="46.82691" lon="-1.12474">
        <ele>84</ele>
        <time>2018-08-30T07:59:07Z</time>
      </trkpt>
      <trkpt lat="46.82701" lon="-1.12476">
        <ele>84</ele>
        <time>2018-08-30T08:00:07Z</time>
      </trkpt>
      <trkpt lat="46.82713" lon="-1.12474">
        <ele>84</ele>
        <time>2018-08-30T08:01:07Z</time>
      </trkpt>
      <trkpt lat="46.82726" lon="-1.12467">
        <ele>83</ele>
        <time>2018-08-30T08:02:07Z</time>
      </trkpt>
      <trkpt lat="46.82835" lon="-1.12401">
        <ele>84</ele>
        <time>2018-08-30T08:03:07Z</time>
      </trkpt>
      <trkpt lat="46.82934" lon="-1.12306">
        <ele>89</ele>
        <time>2018-08-30T08:04:07Z</time>
      </trkpt>
      <trkpt lat="46.83048" lon="-1.12192">
        <ele>92</ele>
        <time>2018-08-30T08:05:07Z</time>
      </trkpt>
      <trkpt lat="46.83083" lon="-1.1216">
        <ele>94</ele>
        <time>2018-08-30T08:06:07Z</time>
      </trkpt>
      <trkpt lat="46.83152" lon="-1.12088">
        <ele>96</ele>
        <time>2018-08-30T08:07:07Z</time>
      </trkpt>
      <trkpt lat="46.83169" lon="-1.12074">
        <ele>96</ele>
        <time>2018-08-30T08:08:07Z</time>
      </trkpt>
      <trkpt lat="46.83169" lon="-1.12074">
        <ele>96</ele>
        <time>2018-08-30T08:09:07Z</time>
      </trkpt>
      <trkpt lat="46.83204" lon="-1.12047">
        <ele>97</ele>
        <time>2018-08-30T08:10:07Z</time>
      </trkpt>
      <trkpt lat="46.83257" lon="-1.12012">
        <ele>98</ele>
        <time>2018-08-30T08:11:07Z</time>
      </trkpt>
      <trkpt lat="46.83291" lon="-1.11983">
        <ele>97</ele>
        <time>2018-08-30T08:12:07Z</time>
      </trkpt>
      <trkpt lat="46.83312" lon="-1.11959">
        <ele>98</ele>
        <time>2018-08-30T08:13:07Z</time>
      </trkpt>
      <trkpt lat="46.83331" lon="-1.11931">
        <ele>98</ele>
        <time>2018-08-30T08:14:07Z</time>
      </trkpt>
      <trkpt lat="46.8335" lon="-1.11901">
        <ele>99</ele>
        <time>2018-08-30T08:15:07Z</time>
      </trkpt>
      <trkpt lat="46.83372" lon="-1.11855">
        <ele>99</ele>
        <time>2018-08-30T08:16:07Z</time>
      </trkpt>
      <trkpt lat="46.83545" lon="-1.11455">
        <ele>96</ele>
        <time>2018-08-30T08:17:07Z</time>
      </trkpt>
      <trkpt lat="46.83569" lon="-1.11418">
        <ele>96</ele>
        <time>2018-08-30T08:18:07Z</time>
      </trkpt>
      <trkpt lat="46.83952" lon="-1.10941">
        <ele>95</ele>
        <time>2018-08-30T08:19:07Z</time>
      </trkpt>
      <trkpt lat="46.84047" lon="-1.1086">
        <ele>96</ele>
        <time>2018-08-30T08:20:07Z</time>
      </trkpt>
      <trkpt lat="46.84047" lon="-1.1086">
        <ele>96</ele>
        <time>2018-08-30T08:21:07Z</time>
      </trkpt>
      <trkpt lat="46.84475" lon="-1.10492">
        <ele>96</ele>
        <time>2018-08-30T08:22:07Z</time>
      </trkpt>
      <trkpt lat="46.84531" lon="-1.10466">
        <ele>95</ele>
        <time>2018-08-30T08:23:07Z</time>
      </trkpt>
      <trkpt lat="46.846" lon="-1.10447">
        <ele>96</ele>
        <time>2018-08-30T08:24:07Z</time>
      </trkpt>
      <trkpt lat="46.846" lon="-1.10447">
        <ele>96</ele>
        <time>2018-08-30T08:25:07Z</time>
      </trkpt>
      <trkpt lat="46.84681" lon="-1.10423">
        <ele>96</ele>
        <time>2018-08-30T08:26:07Z</time>
      </trkpt>
      <trkpt lat="46.84762" lon="-1.10396">
        <ele>97</ele>
        <time>2018-08-30T08:27:07Z</time>
      </trkpt>
      <trkpt lat="46.84952" lon="-1.10312">
        <ele>103</ele>
        <time>2018-08-30T08:28:07Z</time>
      </trkpt>
      <trkpt lat="46.85183" lon="-1.10296">
        <ele>105</ele>
        <time>2018-08-30T08:29:07Z</time>
      </trkpt>
      <trkpt lat="46.85183" lon="-1.10296">
        <ele>105</ele>
        <time>2018-08-30T08:30:07Z</time>
      </trkpt>
      <trkpt lat="46.85464" lon="-1.10276">
        <ele>101</ele>
        <time>2018-08-30T08:31:07Z</time>
      </trkpt>
      <trkpt lat="46.85489" lon="-1.10272">
        <ele>100</ele>
        <time>2018-08-30T08:32:07Z</time>
      </trkpt>
      <trkpt lat="46.8565" lon="-1.10211">
        <ele>97</ele>
        <time>2018-08-30T08:33:07Z</time>
      </trkpt>
      <trkpt lat="46.85687" lon="-1.10192">
        <ele>96</ele>
        <time>2018-08-30T08:34:07Z</time>
      </trkpt>
      <trkpt lat="46.85777" lon="-1.1014">
        <ele>94</ele>
        <time>2018-08-30T08:35:07Z</time>
      </trkpt>
      <trkpt lat="46.85777" lon="-1.1014">
        <ele>94</ele>
        <time>2018-08-30T08:36:07Z</time>
      </trkpt>
      <trkpt lat="46.85829" lon="-1.1011">
        <ele>94</ele>
        <time>2018-08-30T08:37:07Z</time>
      </trkpt>
      <trkpt lat="46.8585" lon="-1.10074">
        <ele>95</ele>
        <time>2018-08-30T08:38:07Z</time>
      </trkpt>
      <trkpt lat="46.85882" lon="-1.10026">
        <ele>95</ele>
        <time>2018-08-30T08:39:07Z</time>
      </trkpt>
      <trkpt lat="46.85886" lon="-1.10016">
        <ele>95</ele>
        <time>2018-08-30T08:40:07Z</time>
      </trkpt>
      <trkpt lat="46.85906" lon="-1.10005">
        <ele>94</ele>
        <time>2018-08-30T08:41:07Z</time>
      </trkpt>
      <trkpt lat="46.85965" lon="-1.09987">
        <ele>92</ele>
        <time>2018-08-30T08:42:07Z</time>
      </trkpt>
      <trkpt lat="46.85983" lon="-1.09979">
        <ele>92</ele>
        <time>2018-08-30T08:43:07Z</time>
      </trkpt>
      <trkpt lat="46.86037" lon="-1.09948">
        <ele>90</ele>
        <time>2018-08-30T08:44:07Z</time>
      </trkpt>
      <trkpt lat="46.86049" lon="-1.09936">
        <ele>89</ele>
        <time>2018-08-30T08:45:07Z</time>
      </trkpt>
      <trkpt lat="46.86077" lon="-1.09901">
        <ele>88</ele>
        <time>2018-08-30T08:46:07Z</time>
      </trkpt>
      <trkpt lat="46.86154" lon="-1.09821">
        <ele>84</ele>
        <time>2018-08-30T08:47:07Z</time>
      </trkpt>
      <trkpt lat="46.86161" lon="-1.09811">
        <ele>83</ele>
        <time>2018-08-30T08:48:07Z</time>
      </trkpt>
      <trkpt lat="46.8617" lon="-1.09787">
        <ele>82</ele>
        <time>2018-08-30T08:49:07Z</time>
      </trkpt>
      <trkpt lat="46.86172" lon="-1.09742">
        <ele>79</ele>
      </trkpt>
      <trkpt lat="46.86174" lon="-1.09699">
        <ele>78</ele>
      </trkpt>
      <trkpt lat="46.8618" lon="-1.09656">
        <ele>77.2</ele>
      </trkpt>
      <trkpt lat="46.862" lon="-1.09602">
        <ele>79.1</ele>
      </trkpt>
      <trkpt lat="46.8623" lon="-1.09544">
        <ele>79.6</ele>
      </trkpt>
      <trkpt lat="46.86278" lon="-1.09442">
        <ele>81</ele>
      </trkpt>
      <trkpt lat="46.86334" lon="-1.09332">
        <ele>84</ele>
      </trkpt>
      <trkpt lat="46.86363" lon="-1.09288">
        <ele>85.1</ele>
      </trkpt>
      <trkpt lat="46.86428" lon="-1.09228">
        <ele>88.8</ele>
      </trkpt>
      <trkpt lat="46.8655" lon="-1.09124">
        <ele>93.8</ele>
      </trkpt>
      <trkpt lat="46.86664" lon="-1.0903">
        <ele>95.1</ele>
      </trkpt>
      <trkpt lat="46.86799" lon="-1.08912">
        <ele>95</ele>
      </trkpt>
      <trkpt lat="46.86919" lon="-1.08808">
        <ele>95</ele>
      </trkpt>
      <trkpt lat="46.87051" lon="-1.08695">
        <ele>94.2</ele>
      </trkpt>
      <trkpt lat="46.87151" lon="-1.08606">
        <ele>95.1</ele>
      </trkpt>
      <trkpt lat="46.87198" lon="-1.08561">
        <ele>96</ele>
      </trkpt>
      <trkpt lat="46.87229" lon="-1.08515">
        <ele>96</ele>
      </trkpt>
      <trkpt lat="46.87257" lon="-1.08443">
        <ele>96.7</ele>
      </trkpt>
      <trkpt lat="46.87293" lon="-1.0833">
        <ele>96</ele>
      </trkpt>
      <trkpt lat="46.87331" lon="-1.08209">
        <ele>95.1</ele>
      </trkpt>
      <trkpt lat="46.8741" lon="-1.07965">
        <ele>91.2</ele>
      </trkpt>
      <trkpt lat="46.87471" lon="-1.07788">
        <ele>89.1</ele>
      </trkpt>
      <trkpt lat="46.87527" lon="-1.07611">
        <ele>84</ele>
      </trkpt>
      <trkpt lat="46.87535" lon="-1.07546">
        <ele>83.5</ele>
      </trkpt>
      <trkpt lat="46.87544" lon="-1.07461">
        <ele>82.2</ele>
      </trkpt>
      <trkpt lat="46.87556" lon="-1.07353">
        <ele>82</ele>
      </trkpt>
      <trkpt lat="46.87563" lon="-1.07266">
        <ele>82.9</ele>
      </trkpt>
      <trkpt lat="46.87555" lon="-1.07134">
        <ele>85.8</ele>
      </trkpt>
      <trkpt lat="46.87544" lon="-1.07001">
        <ele>85.9</ele>
      </trkpt>
      <trkpt lat="46.87535" lon="-1.06905">
        <ele>86.2</ele>
      </trkpt>
      <trkpt lat="46.87525" lon="-1.0683">
        <ele>87.1</ele>
      </trkpt>
      <trkpt lat="46.87513" lon="-1.06728">
        <ele>87.7</ele>
      </trkpt>
      <trkpt lat="46.87502" lon="-1.06666">
        <ele>86.8</ele>
      </trkpt>
      <trkpt lat="46.87492" lon="-1.06602">
        <ele>86.9</ele>
      </trkpt>
      <trkpt lat="46.87493" lon="-1.0652">
        <ele>86.8</ele>
      </trkpt>
      <trkpt lat="46.87507" lon="-1.06379">
        <ele>85.6</ele>
      </trkpt>
      <trkpt lat="46.87543" lon="-1.06177">
        <ele>87.5</ele>
      </trkpt>
      <trkpt lat="46.876" lon="-1.05855">
        <ele>85.2</ele>
      </trkpt>
      <trkpt lat="46.87642" lon="-1.05616">
        <ele>86.8</ele>
      </trkpt>
      <trkpt lat="46.87657" lon="-1.05525">
        <ele>87.4</ele>
      </trkpt>
      <trkpt lat="46.87672" lon="-1.05453">
        <ele>87.9</ele>
      </trkpt>
      <trkpt lat="46.87672" lon="-1.05387">
        <ele>88.6</ele>
      </trkpt>
      <trkpt lat="46.87657" lon="-1.05284">
        <ele>88.3</ele>
      </trkpt>
      <trkpt lat="46.87644" lon="-1.05212">
        <ele>88</ele>
      </trkpt>
      <trkpt lat="46.87627" lon="-1.05145">
        <ele>86.9</ele>
      </trkpt>
      <trkpt lat="46.87598" lon="-1.0507">
        <ele>87.5</ele>
      </trkpt>
      <trkpt lat="46.87538" lon="-1.04917">
        <ele>89</ele>
      </trkpt>
      <trkpt lat="46.87461" lon="-1.04736">
        <ele>91.4</ele>
      </trkpt>
      <trkpt lat="46.87382" lon="-1.0455">
        <ele>89.6</ele>
      </trkpt>
      <trkpt lat="46.87311" lon="-1.04381">
        <ele>88.8</ele>
      </trkpt>
      <trkpt lat="46.87232" lon="-1.04188">
        <ele>90.8</ele>
      </trkpt>
      <trkpt lat="46.87217" lon="-1.04127">
        <ele>92.4</ele>
      </trkpt>
      <trkpt lat="46.8721" lon="-1.04072">
        <ele>93.7</ele>
      </trkpt>
      <trkpt lat="46.87201" lon="-1.04005">
        <ele>93.1</ele>
      </trkpt>
      <trkpt lat="46.87186" lon="-1.03937">
        <ele>91.8</ele>
      </trkpt>
      <trkpt lat="46.87171" lon="-1.03878">
        <ele>91.5</ele>
      </trkpt>
      <trkpt lat="46.87148" lon="-1.03834">
        <ele>91</ele>
      </trkpt>
      <trkpt lat="46.8713" lon="-1.03822">
        <ele>91</ele>
      </trkpt>
      <trkpt lat="46.87115" lon="-1.03814">
        <ele>91</ele>
      </trkpt>
      <trkpt lat="46.87114" lon="-1.03797">
        <ele>90.7</ele>
      </trkpt>
      <trkpt lat="46.87117" lon="-1.03783">
        <ele>90.2</ele>
      </trkpt>
      <trkpt lat="46.87123" lon="-1.03771">
        <ele>90</ele>
      </trkpt>
      <trkpt lat="46.87125" lon="-1.03752">
        <ele>90</ele>
      </trkpt>
      <trkpt lat="46.87119" lon="-1.03712">
        <ele>90</ele>
      </trkpt>
      <trkpt lat="46.87114" lon="-1.03655">
        <ele>90</ele>
      </trkpt>
      <trkpt lat="46.87127" lon="-1.03593">
        <ele>91</ele>
      </trkpt>
      <trkpt lat="46.87146" lon="-1.03518">
        <ele>91.3</ele>
      </trkpt>
      <trkpt lat="46.87169" lon="-1.03417">
        <ele>91</ele>
      </trkpt>
      <trkpt lat="46.87181" lon="-1.03328">
        <ele>90.1</ele>
      </trkpt>
      <trkpt lat="46.8717" lon="-1.03138">
        <ele>92</ele>
      </trkpt>
      <trkpt lat="46.87157" lon="-1.03005">
        <ele>93.9</ele>
      </trkpt>
      <trkpt lat="46.87149" lon="-1.02921">
        <ele>95</ele>
      </trkpt>
      <trkpt lat="46.87153" lon="-1.02764">
        <ele>95</ele>
        <time>2018-08-30T11:22:07Z</time>
      </trkpt>
      <trkpt lat="46.87154" lon="-1.02748">
        <ele>95</ele>
        <time>2018-08-30T11:23:07Z</time>
      </trkpt>
      <trkpt lat="46.87144" lon="-1.02743">
        <ele>95</ele>
        <time>2018-08-30T11:24:07Z</time>
      </trkpt>
      <trkpt lat="46.87137" lon="-1.02734">
        <ele>96</ele>
        <time>2018-08-30T11:25:07Z</time>
      </trkpt>
      <trkpt lat="46.87133" lon="-1.02719">
        <ele>96</ele>
        <time>2018-08-30T11:26:07Z</time>
      </trkpt>
      <trkpt lat="46.87097" lon="-1.02728">
        <ele>96</ele>
        <time>2018-08-30T11:27:07Z</time>
      </trkpt>
      <trkpt lat="46.87027" lon="-1.02758">
        <ele>94</ele>
        <time>2018-08-30T11:28:07Z</time>
      </trkpt>
      <trkpt lat="46.87009" lon="-1.02761">
        <ele>94</ele>
        <time>2018-08-30T11:29:07Z</time>
      </trkpt>
      <trkpt lat="46.86982" lon="-1.02758">
        <ele>94</ele>
        <time>2018-08-30T11:30:07Z</time>
      </trkpt>
      <trkpt lat="46.86964" lon="-1.02753">
        <ele>94</ele>
        <time>2018-08-30T11:31:07Z</time>
      </trkpt>
      <trkpt lat="46.86947" lon="-1.02742">
        <ele>95</ele>
        <time>2018-08-30T11:32:07Z</time>
      </trkpt>
      <trkpt lat="46.86933" lon="-1.02732">
        <ele>95</ele>
        <time>2018-08-30T11:33:07Z</time>
      </trkpt>
      <trkpt lat="46.8687" lon="-1.02674">
        <ele>95</ele>
        <time>2018-08-30T11:34:07Z</time>
      </trkpt>
      <trkpt lat="46.86851" lon="-1.02661">
        <ele>96</ele>
        <time>2018-08-30T11:35:07Z</time>
      </trkpt>
      <trkpt lat="46.86833" lon="-1.02652">
        <ele>96</ele>
        <time>2018-08-30T11:36:07Z</time>
      </trkpt>
      <trkpt lat="46.86833" lon="-1.02652">
        <ele>96</ele>
        <time>2018-08-30T11:37:07Z</time>
      </trkpt>
      <trkpt lat="46.86811" lon="-1.02644">
        <ele>97</ele>
        <time>2018-08-30T11:38:07Z</time>
      </trkpt>
      <trkpt lat="46.8679" lon="-1.02641">
        <ele>98</ele>
        <time>2018-08-30T11:39:07Z</time>
      </trkpt>
      <trkpt lat="46.86728" lon="-1.02647">
        <ele>100</ele>
        <time>2018-08-30T11:40:07Z</time>
      </trkpt>
      <trkpt lat="46.86707" lon="-1.02645">
        <ele>100</ele>
        <time>2018-08-30T11:41:07Z</time>
      </trkpt>
      <trkpt lat="46.86705" lon="-1.02655">
        <ele>100</ele>
        <time>2018-08-30T11:42:07Z</time>
      </trkpt>
      <trkpt lat="46.86701" lon="-1.02664">
        <ele>100</ele>
        <time>2018-08-30T11:43:07Z</time>
      </trkpt>
      <trkpt lat="46.86695" lon="-1.0267">
        <ele>100</ele>
        <time>2018-08-30T11:44:07Z</time>
      </trkpt>
      <trkpt lat="46.86688" lon="-1.02673">
        <ele>101</ele>
        <time>2018-08-30T11:45:07Z</time>
      </trkpt>
      <trkpt lat="46.86672" lon="-1.02674">
        <ele>101</ele>
        <time>2018-08-30T11:46:07Z</time>
      </trkpt>
      <trkpt lat="46.86664" lon="-1.02678">
        <ele>101</ele>
        <time>2018-08-30T11:47:07Z</time>
      </trkpt>
      <trkpt lat="46.86654" lon="-1.02662">
        <ele>102</ele>
        <time>2018-08-30T11:48:07Z</time>
      </trkpt>
      <trkpt lat="46.86657" lon="-1.02649">
        <ele>102</ele>
        <time>2018-08-30T11:49:07Z</time>
      </trkpt>
      <trkpt lat="46.86657" lon="-1.02617">
        <ele>102</ele>
        <time>2018-08-30T11:50:07Z</time>
      </trkpt>
      <trkpt lat="46.86648" lon="-1.02592">
        <ele>103</ele>
        <time>2018-08-30T11:51:07Z</time>
      </trkpt>
      <trkpt lat="46.86538" lon="-1.0245">
        <ele>106</ele>
        <time>2018-08-30T11:52:07Z</time>
      </trkpt>
      <trkpt lat="46.86512" lon="-1.02423">
        <ele>106</ele>
        <time>2018-08-30T11:53:07Z</time>
      </trkpt>
      <trkpt lat="46.86476" lon="-1.02389">
        <ele>106</ele>
        <time>2018-08-30T11:54:07Z</time>
      </trkpt>
      <trkpt lat="46.86463" lon="-1.02387">
        <ele>107</ele>
        <time>2018-08-30T11:55:07Z</time>
      </trkpt>
      <trkpt lat="46.86467" lon="-1.02381">
        <ele>107</ele>
        <time>2018-08-30T11:56:07Z</time>
      </trkpt>
      <trkpt lat="46.86477" lon="-1.02374">
        <ele>106</ele>
        <time>2018-08-30T11:57:07Z</time>
      </trkpt>
      <trkpt lat="46.86469" lon="-1.02368">
        <ele>106</ele>
        <time>2018-08-30T11:58:07Z</time>
      </trkpt>
      <trkpt lat="46.86495" lon="-1.0234">
        <ele>104</ele>
        <time>2018-08-30T11:59:07Z</time>
      </trkpt>
      <trkpt lat="46.86505" lon="-1.02325">
        <ele>104</ele>
        <time>2018-08-30T12:00:07Z</time>
      </trkpt>
      <trkpt lat="46.86565" lon="-1.02262">
        <ele>105</ele>
        <time>2018-08-30T12:01:07Z</time>
      </trkpt>
      <trkpt lat="46.86588" lon="-1.02218">
        <ele>106</ele>
        <time>2018-08-30T12:02:07Z</time>
      </trkpt>
      <trkpt lat="46.86609" lon="-1.02102">
        <ele>107</ele>
        <time>2018-08-30T12:03:07Z</time>
      </trkpt>
      <trkpt lat="46.86618" lon="-1.02033">
        <ele>108</ele>
        <time>2018-08-30T12:04:07Z</time>
      </trkpt>
      <trkpt lat="46.86625" lon="-1.02034">
        <ele>108</ele>
        <time>2018-08-30T12:05:07Z</time>
      </trkpt>
      <trkpt lat="46.86633" lon="-1.02032">
        <ele>108</ele>
        <time>2018-08-30T12:06:07Z</time>
      </trkpt>
      <trkpt lat="46.86662" lon="-1.02007">
        <ele>107</ele>
        <time>2018-08-30T12:07:07Z</time>
      </trkpt>
      <trkpt lat="46.86682" lon="-1.01985">
        <ele>107</ele>
        <time>2018-08-30T12:08:07Z</time>
      </trkpt>
      <trkpt lat="46.86688" lon="-1.01973">
        <ele>107</ele>
        <time>2018-08-30T12:09:07Z</time>
      </trkpt>
      <trkpt lat="46.86698" lon="-1.01949">
        <ele>107</ele>
        <time>2018-08-30T12:10:07Z</time>
      </trkpt>
      <trkpt lat="46.86712" lon="-1.01894">
        <ele>108</ele>
        <time>2018-08-30T12:11:07Z</time>
      </trkpt>
      <trkpt lat="46.8672" lon="-1.01809">
        <ele>108</ele>
        <time>2018-08-30T12:12:07Z</time>
      </trkpt>
      <trkpt lat="46.86723" lon="-1.01801">
        <ele>107</ele>
        <time>2018-08-30T12:13:07Z</time>
      </trkpt>
      <trkpt lat="46.86726" lon="-1.01796">
        <ele>107</ele>
        <time>2018-08-30T12:14:07Z</time>
      </trkpt>
      <trkpt lat="46.86746" lon="-1.01779">
        <ele>106</ele>
        <time>2018-08-30T12:15:07Z</time>
      </trkpt>
      <trkpt lat="46.86749" lon="-1.01521">
        <ele>112</ele>
        <time>2018-08-30T12:16:07Z</time>
      </trkpt>
      <trkpt lat="46.86749" lon="-1.01521">
        <ele>112</ele>
        <time>2018-08-30T12:17:07Z</time>
      </trkpt>
      <trkpt lat="46.86749" lon="-1.01485">
        <ele>112</ele>
        <time>2018-08-30T12:18:07Z</time>
      </trkpt>
      <trkpt lat="46.86745" lon="-1.01464">
        <ele>113</ele>
        <time>2018-08-30T12:19:07Z</time>
      </trkpt>
      <trkpt lat="46.86747" lon="-1.01455">
        <ele>113</ele>
        <time>2018-08-30T12:20:07Z</time>
      </trkpt>
      <trkpt lat="46.86763" lon="-1.01424">
        <ele>112</ele>
        <time>2018-08-30T12:21:07Z</time>
      </trkpt>
      <trkpt lat="46.86754" lon="-1.01414">
        <ele>113</ele>
        <time>2018-08-30T12:22:07Z</time>
      </trkpt>
      <trkpt lat="46.8673" lon="-1.01396">
        <ele>112</ele>
        <time>2018-08-30T12:23:07Z</time>
      </trkpt>
      <trkpt lat="46.86712" lon="-1.0139">
        <ele>112</ele>
        <time>2018-08-30T12:24:07Z</time>
      </trkpt>
      <trkpt lat="46.86711" lon="-1.01386">
        <ele>112</ele>
        <time>2018-08-30T12:25:07Z</time>
      </trkpt>
      <trkpt lat="46.86712" lon="-1.01379">
        <ele>112</ele>
        <time>2018-08-30T12:26:07Z</time>
      </trkpt>
      <trkpt lat="46.86711" lon="-1.01363">
        <ele>111</ele>
        <time>2018-08-30T12:27:07Z</time>
      </trkpt>
      <trkpt lat="46.86695" lon="-1.01251">
        <ele>108</ele>
        <time>2018-08-30T12:28:07Z</time>
      </trkpt>
      <trkpt lat="46.86664" lon="-1.01149">
        <ele>107</ele>
        <time>2018-08-30T12:29:07Z</time>
      </trkpt>
      <trkpt lat="46.86664" lon="-1.01122">
        <ele>107</ele>
        <time>2018-08-30T12:30:07Z</time>
      </trkpt>
      <trkpt lat="46.86652" lon="-1.01103">
        <ele>107</ele>
        <time>2018-08-30T12:31:07Z</time>
      </trkpt>
      <trkpt lat="46.86647" lon="-1.01098">
        <ele>108</ele>
        <time>2018-08-30T12:32:07Z</time>
      </trkpt>
      <trkpt lat="46.8662" lon="-1.01062">
        <ele>108</ele>
        <time>2018-08-30T12:33:07Z</time>
      </trkpt>
      <trkpt lat="46.86611" lon="-1.01056">
        <ele>109</ele>
        <time>2018-08-30T12:34:07Z</time>
      </trkpt>
      <trkpt lat="46.86602" lon="-1.01045">
        <ele>109</ele>
        <time>2018-08-30T12:35:07Z</time>
      </trkpt>
      <trkpt lat="46.86595" lon="-1.01029">
        <ele>109</ele>
        <time>2018-08-30T12:36:07Z</time>
      </trkpt>
      <trkpt lat="46.86584" lon="-1.01011">
        <ele>110</ele>
        <time>2018-08-30T12:37:07Z</time>
      </trkpt>
      <trkpt lat="46.86579" lon="-1.00961">
        <ele>111</ele>
        <time>2018-08-30T12:38:07Z</time>
      </trkpt>
      <trkpt lat="46.86588" lon="-1.00948">
        <ele>111</ele>
        <time>2018-08-30T12:39:07Z</time>
      </trkpt>
      <trkpt lat="46.86599" lon="-1.00939">
        <ele>110</ele>
        <time>2018-08-30T12:40:07Z</time>
      </trkpt>
      <trkpt lat="46.86679" lon="-1.00848">
        <ele>110</ele>
        <time>2018-08-30T12:41:07Z</time>
      </trkpt>
      <trkpt lat="46.86693" lon="-1.00824">
        <ele>109</ele>
        <time>2018-08-30T12:42:07Z</time>
      </trkpt>
      <trkpt lat="46.86731" lon="-1.00783">
        <ele>109</ele>
        <time>2018-08-30T12:43:07Z</time>
      </trkpt>
      <trkpt lat="46.86726" lon="-1.00678">
        <ele>111</ele>
        <time>2018-08-30T12:44:07Z</time>
      </trkpt>
      <trkpt lat="46.86724" lon="-1.0067">
        <ele>111</ele>
        <time>2018-08-30T12:45:07Z</time>
      </trkpt>
      <trkpt lat="46.86714" lon="-1.00674">
        <ele>111</ele>
        <time>2018-08-30T12:46:07Z</time>
      </trkpt>
      <trkpt lat="46.86712" lon="-1.00666">
        <ele>111</ele>
        <time>2018-08-30T12:47:07Z</time>
      </trkpt>
      <trkpt lat="46.86708" lon="-1.0066">
        <ele>111</ele>
        <time>2018-08-30T12:48:07Z</time>
      </trkpt>
      <trkpt lat="46.86664" lon="-1.00646">
        <ele>111</ele>
        <time>2018-08-30T12:49:07Z</time>
      </trkpt>
      <trkpt lat="46.86587" lon="-1.00616">
        <ele>116</ele>
        <time>2018-08-30T12:50:07Z</time>
      </trkpt>
    </trkseg>
  </trk>
</gpx>